M I D A S
Marine Information and Data Acquisition System
Tripno 557 of the Zeeleeuw from 2003-08-27 06:17:15 to 2003-08-27 12:06:54
Back to CruiseResearch ActivitiesStationsMapUnderway DataData graphs

EquipmentUnitsComment
TimeDGPSUTC
LatitudeDGPSDM.mWGS84
LongitudeDGPSDM.mWGS84
TemperatureSBE03/SBE38deg celciusITS90
ConductivitySBE21S/mITS90
SalinitySBE21 Practical Salinity Units
ChlorophylAChelsea fluorimeterg/lCalibrated in Aceton
Missing or incorrect values are displayed as -999
Sea surface data collected by the RV Zeeleeuw from 2003-08-27 06:17:15 to 2003-08-27 12:06:54
                                                                                    Next 1000 lines
Time Latitude Longitude Temperature Conductivity Salinity ChlorophylA
2003-08-27 06:17:23 51°13.6 2°56.11 -999 0.452513 2.385601 -0.612702
2003-08-27 06:17:29 51°13.6 2°56.11 46.651821 0.470976 2.489229 -0.612702
2003-08-27 06:17:33 51°13.6 2°56.11 46.193443 0.456685 2.409024 -0.612702
2003-08-27 06:17:37 51°13.6 2°56.11 49.98639 0.447298 2.356456 -0.578993
2003-08-27 06:17:41 51°13.6 2°56.11 47.425895 0.463674 2.448309 -0.612702
2003-08-27 06:17:49 51°13.6 2°56.11 47.425895 0.463674 2.448309 -0.612702
2003-08-27 06:17:53 51°13.6 2°56.11 46.55998 0.45898 2.421964 -0.646411
2003-08-27 06:17:59 51°13.6 2°56.11 -999 0.436243 2.29468 -0.612702
2003-08-27 06:18:03 51°13.6 2°56.11 47.893005 0.451157 2.378137 -0.612702
2003-08-27 06:18:09 51°13.6 2°56.11 46.337332 0.437703 2.302873 -0.612702
2003-08-27 06:18:13 51°13.6 2°56.11 46.679764 0.448862 2.36535 -0.612702
2003-08-27 06:18:17 51°13.6 2°56.11 46.679764 0.448862 2.36535 -0.612702
2003-08-27 06:18:21 51°13.6 2°56.11 45.592035 0.446776 2.353701 -0.612702
2003-08-27 06:18:29 51°13.6 2°56.11 47.843099 0.441562 2.324484 -0.646411
2003-08-27 06:18:33 51°13.6 2°56.11 47.433573 0.461692 2.437354 -0.612702
2003-08-27 06:18:39 51°13.6 2°56.11 47.155238 0.446359 2.351432 -0.612702
2003-08-27 06:18:45 51°13.6 2°56.11 47.452024 0.466803 2.466093 -0.646411
2003-08-27 06:18:49 51°13.59 2°56.11 47.452024 0.466803 2.466093 -0.646411
2003-08-27 06:18:53 51°13.59 2°56.11 45.817127 0.463778 2.449136 -0.612702
2003-08-27 06:19:01 51°13.59 2°56.11 46.350636 0.453765 2.392986 -0.612702
2003-08-27 06:19:07 51°13.6 2°56.11 46.350636 0.453765 2.392986 -0.612702
2003-08-27 06:19:11 51°13.6 2°56.11 45.449529 0.436347 2.295489 -0.612702
2003-08-27 06:19:17 51°13.6 2°56.11 46.09126 0.459919 2.427572 -0.646411
2003-08-27 06:19:21 51°13.59 2°56.11 47.196591 0.471497 2.492651 -0.646411
2003-08-27 06:19:27 51°13.59 2°56.11 45.533445 0.454078 2.394841 -0.612702
2003-08-27 06:19:29 51°13.59 2°56.11 46.163003 0.46503 2.456338 -0.612702
2003-08-27 06:19:37 51°13.59 2°56.11 46.163003 0.46503 2.456338 -0.612702
2003-08-27 06:19:41 51°13.59 2°56.11 47.573354 0.464717 2.454581 -0.612702
2003-08-27 06:19:45 51°13.59 2°56.11 46.870419 0.452096 2.383799 -0.646411
2003-08-27 06:19:49 51°13.6 2°56.11 44.949434 0.455538 2.403131 -0.646411
2003-08-27 06:19:57 51°13.6 2°56.11 42.983625 0.473792 2.505664 -0.646411
2003-08-27 06:20:01 51°13.6 2°56.11 43.559337 0.451991 2.383282 -0.612702
2003-08-27 06:20:07 51°13.6 2°56.11 43.559337 0.451991 2.383282 -0.612702
2003-08-27 06:20:09 51°13.6 2°56.11 34.313523 0.463152 2.445931 -0.646411
2003-08-27 06:20:17 51°13.6 2°56.11 44.119826 0.462944 2.444828 -0.646411
2003-08-27 06:20:21 51°13.6 2°56.11 46.023936 0.453243 2.390365 -0.612702
2003-08-27 06:20:25 51°13.6 2°56.11 43.829845 0.4522 2.384585 -0.646411
2003-08-27 06:20:31 51°13.6 2°56.11 46.000404 0.465864 2.461268 -0.646411
2003-08-27 06:20:37 51°13.6 2°56.11 46.000404 0.465864 2.461268 -0.646411
2003-08-27 06:20:41 51°13.6 2°56.11 45.668264 0.455851 2.405055 -0.646411
2003-08-27 06:20:47 51°13.6 2°56.11 47.060137 0.450636 2.375883 -0.646411
2003-08-27 06:20:51 51°13.6 2°56.11 45.549956 0.452409 2.385855 -0.612702
2003-08-27 06:20:57 51°13.6 2°56.11 44.500769 0.448341 2.36306 -0.612702
2003-08-27 06:21:01 51°13.6 2°56.11 45.871005 0.455225 2.40168 -0.646411
2003-08-27 06:21:05 51°13.6 2°56.11 45.871005 0.455225 2.40168 -0.646411
2003-08-27 06:21:11 51°13.6 2°56.11 46.60297 0.450636 2.375983 -0.612702
2003-08-27 06:21:17 51°13.6 2°56.11 45.645446 0.456789 2.410524 -0.646411
2003-08-27 06:21:21 51°13.6 2°56.11 45.335666 0.461796 2.438625 -0.612702
2003-08-27 06:21:27 51°13.6 2°56.11 47.118831 0.459397 2.425191 -0.646411
2003-08-27 06:21:31 51°13.6 2°56.11 47.899962 0.475253 2.514341 -0.612702
2003-08-27 06:21:37 51°13.6 2°56.11 47.899962 0.475253 2.514341 -0.612702
2003-08-27 06:21:41 51°13.6 2°56.11 45.890462 0.469411 2.48148 -0.646411
2003-08-27 06:21:45 51°13.6 2°56.11 47.957155 0.444482 2.341646 -0.612702
2003-08-27 06:21:49 51°13.6 2°56.11 46.357777 0.453139 2.390183 -0.646411
2003-08-27 06:21:57 51°13.6 2°56.11 45.582738 0.455955 2.405978 -0.646411
2003-08-27 06:22:01 51°13.6 2°56.11 47.050912 0.445316 2.346351 -0.646411
2003-08-27 06:22:07 51°13.6 2°56.11 47.050912 0.445316 2.346351 -0.646411
2003-08-27 06:22:09 51°13.6 2°56.11 47.98188 0.464613 2.45465 -0.612702
2003-08-27 06:22:17 51°13.6 2°56.11 45.63688 0.43593 2.293899 -0.578993
2003-08-27 06:22:21 51°13.6 2°56.11 45.720205 0.445734 2.348786 -0.612702
2003-08-27 06:22:27 51°13.6 2°56.11 45.925427 0.468263 2.475203 -0.612702
2003-08-27 06:22:29 51°13.6 2°56.11 47.126393 0.461379 2.436522 -0.646411
2003-08-27 06:22:37 51°13.6 2°56.11 47.126393 0.461379 2.436522 -0.646411
2003-08-27 06:22:41 51°13.6 2°56.11 48.674544 0.452617 2.387394 -0.646411
2003-08-27 06:22:47 51°13.6 2°56.11 47.122056 0.45439 2.397371 -0.646411
2003-08-27 06:22:49 51°13.6 2°56.11 45.459743 0.474418 2.509927 -0.612702
2003-08-27 06:22:57 51°13.6 2°56.11 48.629153 0.466073 2.463064 -0.612702
2003-08-27 06:23:01 51°13.6 2°56.11 46.982282 0.474627 2.511172 -0.646411
2003-08-27 06:23:07 51°13.6 2°56.11 46.982282 0.474627 2.511172 -0.646411
2003-08-27 06:23:09 51°13.6 2°56.11 45.662139 0.46044 2.431457 -0.612702
2003-08-27 06:23:17 51°13.6 2°56.11 46.348621 0.461901 2.439691 -0.612702
2003-08-27 06:23:21 51°13.6 2°56.11 44.945921 0.476817 2.523574 -0.612702
2003-08-27 06:23:27 51°13.6 2°56.11 46.597113 0.468159 2.474895 -0.646411
2003-08-27 06:23:29 51°13.6 2°56.11 47.089717 0.462839 2.445033 -0.646411
2003-08-27 06:23:37 51°13.6 2°56.11 47.089717 0.462839 2.445033 -0.646411
2003-08-27 06:23:41 51°13.6 2°56.11 47.123711 0.461483 2.437417 -0.646411
2003-08-27 06:23:47 51°13.6 2°56.11 46.418307 0.464195 2.452686 -0.646411
2003-08-27 06:23:49 51°13.6 2°56.11 44.586307 0.463152 2.446825 -0.612702
2003-08-27 06:23:57 51°13.6 2°56.11 45.971428 0.45898 2.423463 -0.646411
2003-08-27 06:24:01 51°13.6 2°56.11 45.519896 0.467429 2.470929 -0.612702
2003-08-27 06:24:05 51°13.6 2°56.11 45.519896 0.467429 2.470929 -0.612702
2003-08-27 06:24:11 51°13.6 2°56.11 46.731925 0.457102 2.412958 -0.612702
2003-08-27 06:24:17 51°13.6 2°56.11 45.304684 0.453765 2.394231 -0.612702
2003-08-27 06:24:21 51°13.6 2°56.11 45.87778 0.469202 2.481005 -0.612702
2003-08-27 06:24:25 51°13.6 2°56.11 47.219284 0.486519 2.578533 -0.612702
2003-08-27 06:24:31 51°13.6 2°56.11 44.612292 0.472436 2.499231 -0.612702
2003-08-27 06:24:37 51°13.6 2°56.11 44.612292 0.472436 2.499231 -0.612702
2003-08-27 06:24:39 51°13.6 2°56.11 44.564489 0.469724 2.483938 -0.646411
2003-08-27 06:24:49 51°13.6 2°56.11 43.22944 0.462944 2.445894 -0.612702
2003-08-27 06:24:53 51°13.6 2°56.11 43.22944 0.462944 2.445894 -0.612702
2003-08-27 06:24:57 51°13.6 2°56.11 45.260975 0.453035 2.390304 -0.646411
2003-08-27 06:25:05 51°13.6 2°56.11 44.494559 0.467742 2.472932 -0.612702
2003-08-27 06:25:09 51°13.6 2°56.11 47.134697 0.428943 2.255463 -0.612702
2003-08-27 06:25:13 51°13.6 2°56.11 46.565552 0.529821 2.823788 -0.646411
2003-08-27 06:25:19 51°13.6 2°56.11 45.42345 0.436556 2.298043 -0.612702
2003-08-27 06:25:25 51°13.6 2°56.1 45.42345 0.436556 2.298043 -0.612702
2003-08-27 06:25:29 51°13.6 2°56.1 45.308911 0.520951 2.773569 -0.646411
2003-08-27 06:25:35 51°13.6 2°56.09 44.991139 0.534308 2.849399 -0.612702
2003-08-27 06:25:41 51°13.6 2°56.09 43.665814 0.468681 2.478386 -0.646411
2003-08-27 06:25:45 51°13.6 2°56.08 46.679936 0.508221 2.701482 -0.646411
2003-08-27 06:25:51 51°13.61 2°56.07 45.951092 0.487458 2.584193 -0.646411
2003-08-27 06:25:55 51°13.61 2°56.07 45.951092 0.487458 2.584193 -0.646411
2003-08-27 06:26:01 51°13.61 2°56.06 45.263338 0.503525 2.674991 -0.646411
2003-08-27 06:26:05 51°13.61 2°56.05 46.716501 0.473584 2.506041 -0.612702
2003-08-27 06:26:11 51°13.61 2°56.04 46.735165 0.527734 2.812334 -0.646411
2003-08-27 06:26:15 51°13.62 2°56.03 47.040715 0.513542 2.731884 -0.646411
2003-08-27 06:26:21 51°13.62 2°56.02 46.209914 0.495492 2.629728 -0.680121
2003-08-27 06:26:25 51°13.62 2°56.01 46.209914 0.495492 2.629728 -0.680121
2003-08-27 06:26:31 51°13.62 2°56 47.091659 0.505404 2.685805 -0.680121
2003-08-27 06:26:35 51°13.63 2°55.99 47.210361 0.480573 2.545585 -0.646411
2003-08-27 06:26:41 51°13.63 2°55.98 46.728743 0.502795 2.671086 -0.646411
2003-08-27 06:26:45 51°13.63 2°55.97 47.593621 0.494031 2.621514 -0.612702
2003-08-27 06:26:51 51°13.63 2°55.96 49.20798 0.469411 2.482772 -0.646411
2003-08-27 06:26:55 51°13.63 2°55.95 49.20798 0.469411 2.482772 -0.646411
2003-08-27 06:27:01 51°13.64 2°55.94 48.217704 0.500813 2.659913 -0.646411
2003-08-27 06:27:05 51°13.64 2°55.93 46.467206 0.49424 2.622804 -0.612702
2003-08-27 06:27:11 51°13.64 2°55.92 48.510391 0.500395 2.657666 -0.646411
2003-08-27 06:27:15 51°13.64 2°55.91 49.346741 0.496744 2.637024 -0.646411
2003-08-27 06:27:21 51°13.65 2°55.89 45.314799 0.418723 2.198964 -0.680121
2003-08-27 06:27:25 51°13.65 2°55.88 45.314799 0.418723 2.198964 -0.680121
2003-08-27 06:27:31 51°13.66 2°55.87 47.765779 0.545683 2.914715 -0.612702
2003-08-27 06:27:35 51°13.66 2°55.86 44.373125 0.510621 2.715565 -0.646411
2003-08-27 06:27:41 51°13.66 2°55.85 46.265649 0.515212 2.741653 -0.612702
2003-08-27 06:27:45 51°13.67 2°55.85 46.65776 0.549232 2.935049 -0.612702
2003-08-27 06:27:51 51°13.67 2°55.84 46.455128 0.618651 3.332588 -0.612702
2003-08-27 06:27:55 51°13.68 2°55.83 46.455128 0.618651 3.332588 -0.612702
2003-08-27 06:27:59 51°13.68 2°55.83 44.417943 0.537752 2.869824 -0.646411
2003-08-27 06:28:05 51°13.68 2°55.82 43.616251 0.583677 3.132036 -0.612702
2003-08-27 06:28:13 51°13.68 2°55.82 45.56972 0.59422 3.192632 -0.612702
2003-08-27 06:28:19 51°13.68 2°55.82 45.56972 0.59422 3.192632 -0.612702
2003-08-27 06:28:23 51°13.68 2°55.82 44.870622 0.585138 3.140538 -0.646411
2003-08-27 06:28:29 51°13.68 2°55.82 45.100176 0.537334 2.867693 -0.646411
2003-08-27 06:28:33 51°13.68 2°55.82 44.0413 0.519177 2.764522 -0.646411
2003-08-27 06:28:39 51°13.68 2°55.82 44.837154 0.535352 2.856377 -0.612702
2003-08-27 06:28:43 51°13.68 2°55.81 44.01499 0.514273 2.736717 -0.646411
2003-08-27 06:28:49 51°13.68 2°55.81 44.01499 0.514273 2.736717 -0.646411
2003-08-27 06:28:53 51°13.68 2°55.81 46.408063 0.512603 2.727217 -0.612702
2003-08-27 06:28:57 51°13.68 2°55.81 45.12726 0.509473 2.709486 -0.646411
2003-08-27 06:29:03 51°13.68 2°55.8 46.079099 0.530238 2.827313 -0.646411
2003-08-27 06:29:13 51°13.68 2°55.8 46.433641 0.504986 2.684162 -0.612702
2003-08-27 06:29:19 51°13.68 2°55.79 46.433641 0.504986 2.684162 -0.612702
2003-08-27 06:29:25 51°13.68 2°55.79 45.258467 0.52596 2.803053 -0.612702
2003-08-27 06:29:29 51°13.68 2°55.78 43.62996 0.518655 2.76168 -0.646411
2003-08-27 06:29:35 51°13.68 2°55.78 46.243769 0.525751 2.801986 -0.646411
2003-08-27 06:29:39 51°13.68 2°55.77 47.485562 0.538274 2.873197 -0.612702
2003-08-27 06:29:45 51°13.68 2°55.77 43.799344 0.542657 2.89814 -0.612702
2003-08-27 06:29:49 51°13.68 2°55.76 43.799344 0.542657 2.89814 -0.612702
2003-08-27 06:29:55 51°13.68 2°55.76 43.441996 0.573029 3.071464 -0.612702
2003-08-27 06:29:59 51°13.68 2°55.76 42.101928 0.547353 2.925007 -0.612702
2003-08-27 06:30:05 51°13.68 2°55.76 42.979998 0.557581 2.983276 -0.612702
2003-08-27 06:30:09 51°13.68 2°55.76 43.70094 0.542552 2.897709 -0.646411
2003-08-27 06:30:13 51°13.68 2°55.76 44.81763 0.5961 3.203771 -0.646411
2003-08-27 06:30:17 51°13.68 2°55.75 44.81763 0.5961 3.203771 -0.646411
2003-08-27 06:30:23 51°13.68 2°55.75 44.163361 0.580963 3.11707 -0.646411
2003-08-27 06:30:29 51°13.68 2°55.76 44.107468 0.589836 3.167943 -0.612702
2003-08-27 06:30:33 51°13.68 2°55.76 43.709823 0.557686 2.984124 -0.612702
2003-08-27 06:30:37 51°13.68 2°55.76 44.42999 0.573551 3.074752 -0.646411
2003-08-27 06:30:41 51°13.68 2°55.76 44.164514 0.583677 3.132743 -0.612702
2003-08-27 06:30:49 51°13.69 2°55.76 44.164514 0.583677 3.132743 -0.612702
2003-08-27 06:30:53 51°13.69 2°55.76 45.686926 0.599023 3.220771 -0.646411
2003-08-27 06:30:57 51°13.69 2°55.76 42.881735 0.593907 3.191556 -0.646411
2003-08-27 06:31:05 51°13.69 2°55.76 43.629633 0.593385 3.188562 -0.646411
2003-08-27 06:31:09 51°13.69 2°55.77 43.458237 0.600275 3.228144 -0.612702
2003-08-27 06:31:13 51°13.69 2°55.77 45.001467 0.610403 3.286367 -0.612702
2003-08-27 06:31:17 51°13.7 2°55.77 45.001467 0.610403 3.286367 -0.612702
2003-08-27 06:31:21 51°13.7 2°55.77 41.434698 0.628153 3.388625 -0.646411
2003-08-27 06:31:29 51°13.7 2°55.77 40.870708 0.632329 3.412749 -0.612702
2003-08-27 06:31:33 51°13.71 2°55.77 41.807141 0.691859 3.757415 -0.646411
2003-08-27 06:31:43 51°13.71 2°55.77 41.952026 0.687158 3.730166 -0.612702
2003-08-27 06:31:49 51°13.72 2°55.76 41.473892 0.672849 3.647202 -0.646411
2003-08-27 06:31:53 51°13.72 2°55.76 41.429966 0.63306 3.417157 -0.646411
2003-08-27 06:31:57 51°13.73 2°55.76 41.20441 0.617502 3.327436 -0.646411
2003-08-27 06:32:03 51°13.73 2°55.75 42.335441 0.566245 3.033374 -0.646411
2003-08-27 06:32:07 51°13.73 2°55.75 40.761932 0.549545 2.938033 -0.612702
2003-08-27 06:32:13 51°13.74 2°55.74 40.761932 0.549545 2.938033 -0.612702
2003-08-27 06:32:17 51°13.74 2°55.74 41.875773 0.570211 3.055956 -0.646411
2003-08-27 06:32:21 51°13.75 2°55.73 42.903874 0.55612 2.975444 -0.612702
2003-08-27 06:32:29 51°13.76 2°55.72 40.834731 0.510203 2.714387 -0.612702
2003-08-27 06:32:33 51°13.76 2°55.71 41.102666 0.493509 2.619859 -0.612702
2003-08-27 06:32:37 51°13.77 2°55.7 41.249681 0.503213 2.674728 -0.646411
2003-08-27 06:32:43 51°13.77 2°55.69 41.249681 0.503213 2.674728 -0.646411
2003-08-27 06:32:45 51°13.78 2°55.69 41.357691 0.472853 2.503376 -0.646411
2003-08-27 06:32:53 51°13.79 2°55.67 40.213893 0.421434 2.21502 -0.612702
2003-08-27 06:32:57 51°13.8 2°55.66 42.027299 0.440102 2.319414 -0.612702
2003-08-27 06:33:03 51°13.81 2°55.65 43.648157 0.451053 2.380866 -0.612702
2003-08-27 06:33:09 51°13.82 2°55.64 42.717303 0.465969 2.464697 -0.612702
2003-08-27 06:33:13 51°13.83 2°55.63 42.717303 0.465969 2.464697 -0.612702
2003-08-27 06:33:21 51°13.84 2°55.62 41.523956 0.467846 2.4754 -0.612702
2003-08-27 06:33:33 51°13.87 2°55.6 40.627794 0.516151 2.748525 -0.612702
2003-08-27 06:33:37 51°13.88 2°55.6 44.795256 0.518864 2.764032 -0.646411
2003-08-27 06:33:45 51°13.89 2°55.58 39.769598 0.494135 2.624025 -0.646411
2003-08-27 06:33:49 51°13.9 2°55.58 39.769598 0.494135 2.624025 -0.646411
2003-08-27 06:33:53 51°13.91 2°55.57 42.23363 0.524916 2.798469 -0.646411
2003-08-27 06:33:57 51°13.91 2°55.57 40.788862 0.499352 2.653598 -0.646411
2003-08-27 06:34:01 51°13.92 2°55.56 41.447887 0.523142 2.788474 -0.646411
2003-08-27 06:34:09 51°13.94 2°55.55 41.069153 0.52429 2.794992 -0.612702
2003-08-27 06:34:11 51°13.94 2°55.55 42.562847 0.549232 2.936953 -0.646411
2003-08-27 06:34:19 51°13.95 2°55.54 42.562847 0.549232 2.936953 -0.646411
2003-08-27 06:34:21 51°13.96 2°55.54 41.076881 0.569898 3.054985 -0.646411
2003-08-27 06:34:29 51°13.97 2°55.53 43.533768 0.525855 2.803962 -0.646411
2003-08-27 06:34:33 51°13.98 2°55.52 42.578718 0.531595 2.836661 -0.646411
2003-08-27 06:34:39 51°13.99 2°55.51 41.037437 0.516047 2.74832 -0.646411
2003-08-27 06:34:41 51°14 2°55.51 42.061789 0.53243 2.841408 -0.646411
2003-08-27 06:34:49 51°14.01 2°55.5 42.061789 0.53243 2.841408 -0.646411
2003-08-27 06:34:53 51°14.02 2°55.49 43.252772 0.578144 3.102296 -0.646411
2003-08-27 06:34:59 51°14.03 2°55.49 42.062546 0.568228 3.045609 -0.646411
2003-08-27 06:35:03 51°14.04 2°55.48 41.290002 0.500708 2.661535 -0.646411
2003-08-27 06:35:09 51°14.05 2°55.47 42.062819 0.503004 2.674489 -0.612702
2003-08-27 06:35:13 51°14.06 2°55.47 42.56881 0.486728 2.582473 -0.612702
2003-08-27 06:35:19 51°14.07 2°55.46 42.56881 0.486728 2.582473 -0.612702
2003-08-27 06:35:23 51°14.08 2°55.45 41.699687 0.558416 2.9896 -0.612702
2003-08-27 06:35:29 51°14.09 2°55.44 41.550943 0.597979 3.216095 -0.612702
2003-08-27 06:35:33 51°14.1 2°55.44 40.647371 0.5365 2.864721 -0.612702
2003-08-27 06:35:37 51°14.1 2°55.43 41.566339 0.521473 2.779308 -0.612702
2003-08-27 06:35:45 51°14.12 2°55.42 41.676188 0.55445 2.967048 -0.646411
2003-08-27 06:35:49 51°14.13 2°55.42 41.676188 0.55445 2.967048 -0.646411
2003-08-27 06:35:53 51°14.13 2°55.41 43.012777 0.537334 2.869513 -0.612702
2003-08-27 06:36:03 51°14.15 2°55.4 41.799116 0.594325 3.195349 -0.612702
2003-08-27 06:36:07 51°14.16 2°55.39 40.358424 0.567393 3.041135 -0.646411
2003-08-27 06:36:13 51°14.17 2°55.38 40.358424 0.567393 3.041135 -0.646411
2003-08-27 06:36:17 51°14.18 2°55.37 41.128719 0.547458 2.927418 -0.646411
2003-08-27 06:36:23 51°14.19 2°55.36 41.477585 0.555285 2.972106 -0.646411
2003-08-27 06:36:27 51°14.2 2°55.35 41.916307 0.600484 3.230938 -0.612702
2003-08-27 06:36:33 51°14.21 2°55.34 37.613453 0.512499 2.728702 -0.612702
2003-08-27 06:36:37 51°14.22 2°55.33 38.778304 0.484955 2.572823 -0.646411
2003-08-27 06:36:43 51°14.23 2°55.32 38.778304 0.484955 2.572823 -0.646411
2003-08-27 06:36:45 51°14.23 2°55.31 38.692749 0.552676 2.957176 -0.612702
2003-08-27 06:36:53 51°14.25 2°55.29 38.379803 0.636924 3.440755 -0.646411
2003-08-27 06:36:57 51°14.26 2°55.28 40.16814 0.457833 2.42012 -0.612702
2003-08-27 06:37:01 51°14.26 2°55.27 40.445212 0.417889 2.196382 -0.680121
2003-08-27 06:37:17 51°14.29 2°55.22 41.548352 0.648097 3.505542 -0.578993
2003-08-27 06:37:23 51°14.31 2°55.21 41.072925 0.410485 2.155185 -0.646411
2003-08-27 06:37:25 51°14.31 2°55.2 40.850323 0.551945 2.953342 -0.612702
2003-08-27 06:37:33 51°14.32 2°55.18 41.09632 0.630867 3.406148 -0.612702
2003-08-27 06:37:37 51°14.33 2°55.16 41.627344 0.365551 1.905806 -0.612702
2003-08-27 06:37:43 51°14.34 2°55.14 41.627344 0.365551 1.905806 -0.612702
2003-08-27 06:37:49 51°14.35 2°55.12 41.513403 0.527525 2.814202 -0.612702
2003-08-27 06:37:53 51°14.36 2°55.11 41.518557 0.511873 2.725614 -0.612702
2003-08-27 06:37:57 51°14.36 2°55.09 42.144742 0.492362 2.615033 -0.646411
2003-08-27 06:38:03 51°14.37 2°55.07 40.716792 0.367115 1.914554 -0.612702
2003-08-27 06:38:07 51°14.38 2°55.06 41.894722 0.383586 2.005762 -0.612702
2003-08-27 06:38:13 51°14.39 2°55.04 41.894722 0.383586 2.005762 -0.612702
2003-08-27 06:38:17 51°14.39 2°55.03 39.54832 0.360756 1.879488 -0.612702
2003-08-27 06:38:23 51°14.4 2°55 42.226645 0.736257 4.018335 -0.612702
2003-08-27 06:38:25 51°14.41 2°55 40.832548 0.621157 3.350316 -0.612702
2003-08-27 06:38:33 51°14.42 2°54.97 42.091327 0.671596 3.641841 -0.612702
2003-08-27 06:38:43 51°14.44 2°54.93 40.887583 0.531282 2.835721 -0.646411
2003-08-27 06:38:47 51°14.44 2°54.92 41.290186 0.492675 2.61684 -0.646411
2003-08-27 06:38:53 51°14.45 2°54.9 42.423401 0.6056 3.260746 -0.612702
2003-08-27 06:38:57 51°14.46 2°54.89 40.255997 0.841708 4.638498 -0.646411
2003-08-27 06:39:03 51°14.47 2°54.87 42.80471 0.710975 3.871454 -0.646411
2003-08-27 06:39:07 51°14.48 2°54.85 43.185716 0.739079 4.035681 -0.612702
2003-08-27 06:39:13 51°14.49 2°54.84 43.185716 0.739079 4.035681 -0.612702
2003-08-27 06:39:17 51°14.5 2°54.82 41.03759 0.856135 4.724476 -0.612702
2003-08-27 06:39:23 51°14.51 2°54.8 42.506988 0.469515 2.486334 -0.646411
2003-08-27 06:39:27 51°14.52 2°54.79 43.552909 0.653006 3.534324 -0.612702
2003-08-27 06:39:33 51°14.53 2°54.77 41.986942 0.42133 2.215966 -0.612702
2003-08-27 06:39:37 51°14.54 2°54.76 40.382086 0.85143 4.696152 -0.612702
2003-08-27 06:39:41 51°14.55 2°54.75 40.382086 0.85143 4.696152 -0.612702
2003-08-27 06:39:49 51°14.57 2°54.72 42.405569 0.38859 2.033839 -0.646411
2003-08-27 06:39:53 51°14.58 2°54.71 42.208256 0.488084 2.59141 -0.646411
2003-08-27 06:39:57 51°14.59 2°54.7 39.157524 0.900572 4.989056 -0.612702
2003-08-27 06:40:03 51°14.6 2°54.68 39.998014 0.4522 2.389592 -0.612702
2003-08-27 06:40:07 51°14.61 2°54.67 40.703608 0.526899 2.810683 -0.646411
2003-08-27 06:40:13 51°14.63 2°54.65 40.703608 0.526899 2.810683 -0.646411
2003-08-27 06:40:17 51°14.64 2°54.64 39.937184 0.839513 4.624339 -0.646411
2003-08-27 06:40:21 51°14.65 2°54.63 41.172929 0.504986 2.686774 -0.646411
2003-08-27 06:40:29 51°14.67 2°54.6 39.998511 0.582946 3.131652 -0.646411
2003-08-27 06:40:33 51°14.68 2°54.59 39.843193 0.590984 3.178203 -0.612702
2003-08-27 06:40:37 51°14.69 2°54.58 40.617372 0.375454 1.961703 -0.612702
2003-08-27 06:40:43 51°14.71 2°54.57 40.617372 0.375454 1.961703 -0.612702
2003-08-27 06:40:45 51°14.71 2°54.56 39.781531 0.592759 3.18875 -0.612702
2003-08-27 06:40:53 51°14.74 2°54.54 40.111036 0.965206 5.376352 -0.646411
2003-08-27 06:40:57 51°14.75 2°54.53 40.77606 0.411737 2.163713 -0.612702
2003-08-27 06:41:03 51°14.77 2°54.52 41.397349 0.789864 4.335845 -0.612702
2003-08-27 06:41:09 51°14.78 2°54.51 39.75355 0.530447 2.832972 -0.646411
2003-08-27 06:41:13 51°14.8 2°54.51 39.75355 0.530447 2.832972 -0.646411
2003-08-27 06:41:17 51°14.81 2°54.5 40.245373 0.955792 5.321045 -0.612702
2003-08-27 06:41:23 51°14.83 2°54.49 40.599052 0.622619 3.361398 -0.612702
2003-08-27 06:41:25 51°14.83 2°54.49 41.628105 0.653006 3.537625 -0.646411
2003-08-27 06:41:33 51°14.85 2°54.47 43.833583 0.953805 5.310054 -0.612702
2003-08-27 06:41:37 51°14.87 2°54.46 43.296909 0.873072 4.828235 -0.612702
2003-08-27 06:41:43 51°14.88 2°54.45 43.296909 0.873072 4.828235 -0.612702
2003-08-27 06:41:45 51°14.89 2°54.44 39.743483 0.590149 3.174756 -0.612702
2003-08-27 06:41:53 51°14.91 2°54.42 39.908137 0.491214 2.610792 -0.612702
2003-08-27 06:41:57 51°14.92 2°54.41 39.972967 0.948156 5.275656 -0.646411
2003-08-27 06:42:01 51°14.93 2°54.4 40.856073 0.430298 2.267852 -0.612702
2003-08-27 06:42:13 51°14.97 2°54.37 40.287584 0.581485 3.124599 -0.612702
2003-08-27 06:42:17 51°14.98 2°54.36 40.33949 0.67452 3.661027 -0.646411
2003-08-27 06:42:23 51°14.99 2°54.35 39.693473 0.520638 2.776997 -0.578993
2003-08-27 06:42:25 51°15 2°54.34 40.165411 0.75611 4.138474 -0.612702
2003-08-27 06:42:33 51°15.02 2°54.32 39.127725 0.519594 2.772674 -0.646411
2003-08-27 06:42:37 51°15.03 2°54.31 39.343072 0.480469 2.551176 -0.612702
2003-08-27 06:42:43 51°15.05 2°54.3 39.343072 0.480469 2.551176 -0.612702
2003-08-27 06:42:45 51°15.06 2°54.29 40.374664 0.621366 3.355644 -0.646411
2003-08-27 06:42:53 51°15.08 2°54.27 41.785649 0.586287 3.153388 -0.612702
2003-08-27 06:42:57 51°15.09 2°54.26 36.808841 0.943345 5.24733 -0.578993
2003-08-27 06:43:03 51°15.11 2°54.25 38.282178 0.887919 4.916947 -0.612702
2003-08-27 06:43:07 51°15.12 2°54.24 36.917477 0.534413 2.856513 -0.646411
2003-08-27 06:43:13 51°15.14 2°54.22 36.917477 0.534413 2.856513 -0.646411
2003-08-27 06:43:17 51°15.15 2°54.21 38.764456 0.60654 3.269427 -0.646411
2003-08-27 06:43:23 51°15.16 2°54.19 38.746252 0.460649 2.438942 -0.612702
2003-08-27 06:43:29 51°15.18 2°54.18 38.692339 0.963951 5.372721 -0.646411
2003-08-27 06:43:33 51°15.19 2°54.17 40.278976 0.482555 2.562604 -0.646411
2003-08-27 06:43:43 51°15.22 2°54.14 39.694627 0.456268 2.414152 -0.646411
2003-08-27 06:43:47 51°15.24 2°54.13 38.74439 0.515734 2.750191 -0.646411
2003-08-27 06:43:53 51°15.25 2°54.11 38.799561 0.543805 2.910133 -0.612702
2003-08-27 06:43:57 51°15.26 2°54.1 37.358508 0.564679 3.03003 -0.646411
2003-08-27 06:44:03 51°15.28 2°54.09 39.306541 0.842544 4.649107 -0.646411
2003-08-27 06:44:07 51°15.29 2°54.08 39.432261 0.614997 3.318829 -0.612702
2003-08-27 06:44:13 51°15.31 2°54.06 39.432261 0.614997 3.318829 -0.612702
2003-08-27 06:44:17 51°15.32 2°54.05 38.891995 0.471915 2.503061 -0.612702
2003-08-27 06:44:25 51°15.35 2°54.03 42.621347 0.70314 3.830368 -0.612702
2003-08-27 06:44:29 51°15.36 2°54.02 42.621347 0.70314 3.830368 -0.612702
2003-08-27 06:44:33 51°15.37 2°54.01 42.422948 0.545162 2.918368 -0.646411
2003-08-27 06:44:41 51°15.39 2°53.98 42.447473 0.401518 2.108071 -0.612702
2003-08-27 06:44:45 51°15.4 2°53.97 41.174951 0.736258 4.023858 -0.612702
2003-08-27 06:44:49 51°15.42 2°53.96 41.523529 1.012073 5.662521 -0.612702
2003-08-27 06:44:57 51°15.44 2°53.94 40.62027 0.505195 2.691449 -0.612702
2003-08-27 06:45:01 51°15.45 2°53.93 40.62027 0.505195 2.691449 -0.612702
2003-08-27 06:45:05 51°15.46 2°53.92 41.272567 0.826551 4.555326 -0.612702
2003-08-27 06:45:09 51°15.47 2°53.91 41.250782 0.558312 2.994414 -0.612702
2003-08-27 06:45:13 51°15.49 2°53.9 42.907594 0.533995 2.855992 -0.646411
2003-08-27 06:45:21 51°15.51 2°53.88 40.950751 0.653632 3.544263 -0.612702
2003-08-27 06:45:25 51°15.52 2°53.86 42.767072 0.658019 3.569692 -0.612702
2003-08-27 06:45:31 51°15.54 2°53.85 42.767072 0.658019 3.569692 -0.612702
2003-08-27 06:45:33 51°15.54 2°53.84 42.964923 0.562383 3.018811 -0.646411
2003-08-27 06:45:41 51°15.57 2°53.82 42.743153 0.641623 3.475696 -0.612702
2003-08-27 06:45:45 51°15.58 2°53.81 42.865351 0.790282 4.344646 -0.646411
2003-08-27 06:45:51 51°15.6 2°53.79 41.420958 0.495388 2.637685 -0.612702
2003-08-27 06:45:55 51°15.61 2°53.78 43.022213 0.973784 5.436701 -0.612702
2003-08-27 06:46:01 51°15.62 2°53.76 43.022213 0.973784 5.436701 -0.612702
2003-08-27 06:46:05 51°15.64 2°53.75 41.099846 0.484329 2.575864 -0.646411
2003-08-27 06:46:11 51°15.65 2°53.73 42.369441 1.154512 6.532187 -0.612702
2003-08-27 06:46:15 51°15.67 2°53.72 43.644322 0.53316 2.853939 -0.612702
2003-08-27 06:46:25 51°15.69 2°53.69 42.821796 0.413926 2.178879 -0.612702
2003-08-27 06:46:31 51°15.71 2°53.68 42.821796 0.413926 2.178879 -0.612702
2003-08-27 06:46:37 51°15.73 2°53.66 41.919919 1.092543 6.151167 -0.646411
2003-08-27 06:46:41 51°15.74 2°53.65 43.005677 0.449593 2.377831 -0.612702
2003-08-27 06:46:45 51°15.75 2°53.64 42.499574 0.981211 5.476644 -0.578993
2003-08-27 06:46:51 51°15.77 2°53.62 42.215092 0.460023 2.436933 -0.646411
2003-08-27 06:46:53 51°15.77 2°53.62 41.269507 1.118397 6.311234 -0.612702
2003-08-27 06:47:01 51°15.8 2°53.59 41.269507 1.118397 6.311234 -0.612702
2003-08-27 06:47:05 51°15.81 2°53.58 42.915062 0.44636 2.361928 -0.646411
2003-08-27 06:47:09 51°15.82 2°53.57 41.976205 0.940731 5.240995 -0.612702
2003-08-27 06:47:15 51°15.84 2°53.56 41.87629 0.560713 3.010531 -0.612702
2003-08-27 06:47:21 51°15.86 2°53.54 41.727864 0.838886 4.632244 -0.612702
2003-08-27 06:47:25 51°15.87 2°53.53 41.037958 0.580232 3.122981 -0.612702
2003-08-27 06:47:31 51°15.88 2°53.51 41.037958 0.580232 3.122981 -0.612702
2003-08-27 06:47:33 51°15.89 2°53.5 42.162873 0.886874 4.921202 -0.612702
2003-08-27 06:47:41 51°15.91 2°53.48 41.099754 0.551737 2.962274 -0.612702
2003-08-27 06:47:45 51°15.92 2°53.47 42.048486 1.21545 6.910872 -0.612702
2003-08-27 06:47:49 51°15.94 2°53.46 41.922347 0.577205 3.107625 -0.646411
2003-08-27 06:47:53 51°15.95 2°53.45 41.464797 0.687054 3.743797 -0.646411
2003-08-27 06:48:01 51°15.97 2°53.43 41.464797 0.687054 3.743797 -0.646411
2003-08-27 06:48:05 51°15.98 2°53.42 41.099938 0.501961 2.678216 -0.612702
2003-08-27 06:48:09 51°15.99 2°53.4 41.699413 0.519699 2.780025 -0.612702
2003-08-27 06:48:15 51°16.01 2°53.39 41.024028 0.769172 4.227464 -0.646411
2003-08-27 06:48:25 51°16.04 2°53.36 41.947687 0.485998 2.590223 -0.646411
2003-08-27 06:48:31 51°16.06 2°53.34 41.947687 0.485998 2.590223 -0.646411
2003-08-27 06:48:35 51°16.07 2°53.33 42.099778 0.761753 4.188075 -0.646411
2003-08-27 06:48:41 51°16.08 2°53.31 40.84731 0.52596 2.820358 -0.646411
2003-08-27 06:48:45 51°16.1 2°53.3 42.220687 0.652797 3.550946 -0.646411
2003-08-27 06:48:49 51°16.11 2°53.29 41.998041 0.765306 4.208708 -0.612702
2003-08-27 06:48:57 51°16.13 2°53.27 41.413781 0.424042 2.241029 -0.612702
2003-08-27 06:49:01 51°16.14 2°53.26 41.413781 0.424042 2.241029 -0.612702
2003-08-27 06:49:05 51°16.15 2°53.25 41.382105 0.5365 2.878701 -0.612702
2003-08-27 06:49:11 51°16.17 2°53.23 40.796801 0.556538 2.992949 -0.612702
2003-08-27 06:49:13 51°16.18 2°53.22 41.42966 0.638386 3.464475 -0.612702
2003-08-27 06:49:21 51°16.2 2°53.2 40.812892 0.697918 3.811383 -0.612702
2003-08-27 06:49:25 51°16.21 2°53.19 40.240509 0.599128 3.238704 -0.612702
2003-08-27 06:49:33 51°16.23 2°53.16 40.582395 0.771053 4.241861 -0.646411
2003-08-27 06:49:37 51°16.25 2°53.15 41.998648 0.837632 4.635613 -0.612702
2003-08-27 06:49:41 51°16.26 2°53.14 41.62378 0.544745 2.92625 -0.646411
2003-08-27 06:49:49 51°16.28 2°53.12 41.62378 0.544745 2.92625 -0.646411
2003-08-27 06:49:53 51°16.29 2°53.11 42.715349 0.525856 2.819001 -0.646411
2003-08-27 06:49:57 51°16.31 2°53.1 42.950475 1.111279 6.286298 -0.612702
2003-08-27 06:50:03 51°16.32 2°53.08 40.027837 0.763634 4.20143 -0.646411
2003-08-27 06:50:09 51°16.34 2°53.06 39.028956 0.436556 2.310956 -0.612702
2003-08-27 06:50:13 51°16.35 2°53.05 39.398212 0.61364 3.319748 -0.646411
2003-08-27 06:50:25 51°16.39 2°53.01 39.236285 0.9012 5.010054 -0.612702
2003-08-27 06:50:29 51°16.4 2°53 39.322239 0.550067 2.954475 -0.646411
2003-08-27 06:50:33 51°16.41 2°52.99 39.799879 0.961441 5.375546 -0.646411
2003-08-27 06:50:39 51°16.43 2°52.98 38.185451 0.558313 3.005045 -0.612702
2003-08-27 06:50:45 51°16.45 2°52.96 38.669602 0.897122 4.995593 -0.612702
2003-08-27 06:50:49 51°16.46 2°52.95 39.570187 1.090242 6.163158 -0.646411
2003-08-27 06:50:53 51°16.47 2°52.94 39.570187 1.090242 6.163158 -0.646411
2003-08-27 06:51:01 51°16.5 2°52.92 40.089934 0.679012 3.70779 -0.646411
2003-08-27 06:51:05 51°16.51 2°52.91 39.759409 0.596518 3.22828 -0.646411
2003-08-27 06:51:09 51°16.52 2°52.9 39.936687 0.395054 2.082449 -0.612702
2003-08-27 06:51:13 51°16.54 2°52.89 39.783899 1.055601 5.955878 -0.646411
2003-08-27 06:51:17 51°16.55 2°52.88 39.620897 0.708573 3.881359 -0.612702
2003-08-27 06:51:25 51°16.57 2°52.85 39.620897 0.708573 3.881359 -0.612702
2003-08-27 06:51:29 51°16.58 2°52.84 39.479117 0.615832 3.339959 -0.612702
2003-08-27 06:51:33 51°16.6 2°52.83 39.213731 0.54631 2.938805 -0.646411
2003-08-27 06:51:37 51°16.61 2°52.82 39.787232 0.659586 3.593603 -0.646411
2003-08-27 06:51:45 51°16.63 2°52.8 39.266044 0.850699 4.720865 -0.646411
2003-08-27 06:51:49 51°16.64 2°52.79 39.504723 0.605079 3.279118 -0.646411
2003-08-27 06:51:53 51°16.66 2°52.78 39.504723 0.605079 3.279118 -0.646411
2003-08-27 06:51:59 51°16.67 2°52.76 40.437147 0.595369 3.223896 -0.646411
2003-08-27 06:52:05 51°16.69 2°52.75 39.981482 1.029337 5.797714 -0.612702
2003-08-27 06:52:09 51°16.7 2°52.74 39.791998 0.553303 2.981343 -0.612702
2003-08-27 06:52:15 51°16.72 2°52.72 38.93885 0.538066 2.895054 -0.646411
2003-08-27 06:52:21 51°16.74 2°52.71 38.981839 0.933096 5.21831 -0.612702
2003-08-27 06:52:25 51°16.75 2°52.7 38.981839 0.933096 5.21831 -0.612702
2003-08-27 06:52:29 51°16.76 2°52.68 39.016315 0.682459 3.73053 -0.646411
2003-08-27 06:52:33 51°16.78 2°52.67 39.163363 0.795822 4.396411 -0.612702
2003-08-27 06:52:37 51°16.79 2°52.66 38.310894 0.770322 4.244258 -0.578993
2003-08-27 06:52:45 51°16.81 2°52.64 39.223833 0.456373 2.427423 -0.612702
2003-08-27 06:52:49 51°16.82 2°52.64 39.445307 0.521786 2.799701 -0.612702
2003-08-27 06:52:55 51°16.84 2°52.62 39.445307 0.521786 2.799701 -0.612702
2003-08-27 06:52:59 51°16.86 2°52.62 39.24952 0.648516 3.532745 -0.612702
2003-08-27 06:53:05 51°16.87 2°52.61 39.316349 0.890012 4.965486 -0.612702
2003-08-27 06:53:09 51°16.89 2°52.6 39.520008 1.18121 6.727396 -0.612702
2003-08-27 06:53:13 51°16.9 2°52.6 41.378714 0.564471 3.043651 -0.612702
2003-08-27 06:53:25 51°16.94 2°52.58 40.824335 1.062613 5.991895 -0.612702
2003-08-27 06:53:35 51°16.97 2°52.56 39.529759 1.171787 6.671138 -0.612702
2003-08-27 06:53:37 51°16.98 2°52.56 39.665056 1.036557 5.839166 -0.646411
2003-08-27 06:53:45 51°17 2°52.54 39.220351 0.573239 3.091028 -0.612702
2003-08-27 06:53:49 51°17.01 2°52.54 40.370303 0.732601 4.017901 -0.612702
2003-08-27 06:53:53 51°17.03 2°52.53 40.370303 0.732601 4.017901 -0.612702
2003-08-27 06:53:59 51°17.05 2°52.52 39.860375 0.798853 4.41084 -0.612702
2003-08-27 06:54:05 51°17.06 2°52.51 39.041218 0.573656 3.100042 -0.646411
2003-08-27 06:54:09 51°17.08 2°52.51 39.071206 1.173358 6.678678 -0.612702
2003-08-27 06:54:13 51°17.09 2°52.5 40.268788 1.216498 6.94833 -0.646411
2003-08-27 06:54:19 51°17.11 2°52.49 40.504399 1.280803 7.350884 -0.612702
2003-08-27 06:54:25 51°17.13 2°52.48 40.504399 1.280803 7.350884 -0.612702
2003-08-27 06:54:29 51°17.14 2°52.47 40.463721 0.913017 5.103059 -0.612702
2003-08-27 06:54:33 51°17.15 2°52.47 39.827688 0.693217 3.797595 -0.646411
2003-08-27 06:54:39 51°17.17 2°52.46 40.067305 0.643503 3.507473 -0.612702
2003-08-27 06:54:45 51°17.19 2°52.45 38.904404 0.389424 2.055824 -0.612702
2003-08-27 06:54:49 51°17.21 2°52.44 39.665149 1.42602 8.264784 -0.612702
2003-08-27 06:54:53 51°17.22 2°52.44 39.665149 1.42602 8.264784 -0.612702
2003-08-27 06:54:59 51°17.24 2°52.43 39.454504 0.870668 4.855878 -0.646411
2003-08-27 06:55:05 51°17.26 2°52.43 38.345308 0.560714 3.031586 -0.612702
2003-08-27 06:55:09 51°17.27 2°52.42 39.207708 1.194927 6.826605 -0.612702
2003-08-27 06:55:13 51°17.28 2°52.42 39.403815 1.021699 5.763873 -0.646411
2003-08-27 06:55:21 51°17.31 2°52.41 39.684865 0.523978 2.818809 -0.612702
2003-08-27 06:55:25 51°17.32 2°52.41 39.684865 0.523978 2.818809 -0.612702
2003-08-27 06:55:29 51°17.34 2°52.4 40.245961 0.860213 4.789117 -0.646411
2003-08-27 06:55:33 51°17.35 2°52.4 39.993229 0.727796 4.002804 -0.612702
2003-08-27 06:55:41 51°17.37 2°52.39 39.728271 0.9514 5.337823 -0.612702
2003-08-27 06:55:49 51°17.4 2°52.38 40.351526 0.759873 4.194931 -0.646411
2003-08-27 06:55:53 51°17.41 2°52.38 38.451123 1.063241 6.018853 -0.646411
2003-08-27 06:55:57 51°17.43 2°52.38 39.575934 0.453244 2.41612 -0.612702
2003-08-27 06:56:01 51°17.44 2°52.37 39.149643 0.896495 5.009153 -0.646411
2003-08-27 06:56:05 51°17.45 2°52.37 40.113084 0.56635 3.063399 -0.612702
2003-08-27 06:56:13 51°17.48 2°52.36 40.113084 0.56635 3.063399 -0.612702
2003-08-27 06:56:17 51°17.49 2°52.36 40.386694 0.567602 3.070758 -0.612702
2003-08-27 06:56:21 51°17.5 2°52.35 37.775248 0.901828 5.042254 -0.612702
2003-08-27 06:56:29 51°17.53 2°52.34 39.960378 0.863454 4.812213 -0.612702
2003-08-27 06:56:31 51°17.54 2°52.34 38.4197 0.673476 3.688251 -0.578993
2003-08-27 06:56:37 51°17.56 2°52.33 39.023076 0.576788 3.125542 -0.612702
2003-08-27 06:56:43 51°17.58 2°52.33 39.023076 0.576788 3.125542 -0.612702
2003-08-27 06:56:49 51°17.6 2°52.32 39.322302 0.671492 3.676736 -0.612702
2003-08-27 06:56:53 51°17.61 2°52.32 36.900237 1.094638 6.212962 -0.612702
2003-08-27 06:56:57 51°17.62 2°52.31 38.472022 1.199325 6.856976 -0.612702
2003-08-27 06:57:01 51°17.63 2°52.31 39.451344 0.662823 3.62668 -0.646411
2003-08-27 06:57:09 51°17.66 2°52.3 38.861343 0.612387 3.332209 -0.612702
2003-08-27 06:57:13 51°17.67 2°52.3 38.861343 0.612387 3.332209 -0.612702
2003-08-27 06:57:17 51°17.69 2°52.29 38.135804 0.954538 5.361291 -0.612702
2003-08-27 06:57:23 51°17.71 2°52.28 38.861689 0.484851 2.597278 -0.612702
2003-08-27 06:57:29 51°17.73 2°52.28 38.649796 0.557687 3.015688 -0.612702
2003-08-27 06:57:33 51°17.74 2°52.27 39.632446 1.009354 5.692865 -0.612702
2003-08-27 06:57:37 51°17.75 2°52.27 38.362525 0.561027 3.033955 -0.612702
2003-08-27 06:57:43 51°17.77 2°52.26 38.362525 0.561027 3.033955 -0.612702
2003-08-27 06:57:45 51°17.78 2°52.26 37.534851 0.799062 4.428953 -0.612702
2003-08-27 06:57:53 51°17.8 2°52.25 38.031898 0.924207 5.177862 -0.612702
2003-08-27 06:57:57 51°17.82 2°52.25 37.458544 0.520847 2.803071 -0.612702
2003-08-27 06:58:03 51°17.84 2°52.24 38.187961 0.497684 2.670317 -0.646411
2003-08-27 06:58:05 51°17.84 2°52.24 38.251007 0.483495 2.589732 -0.646411
2003-08-27 06:58:13 51°17.87 2°52.24 38.251007 0.483495 2.589732 -0.646411
2003-08-27 06:58:17 51°17.88 2°52.23 38.812677 0.945334 5.305728 -0.646411
2003-08-27 06:58:23 51°17.9 2°52.23 37.045885 0.503526 2.704092 -0.612702
2003-08-27 06:58:29 51°17.92 2°52.23 38.036355 0.816622 4.534321 -0.612702
2003-08-27 06:58:33 51°17.93 2°52.23 39.097947 0.551842 2.981828 -0.646411
2003-08-27 06:58:41 51°17.96 2°52.22 38.010439 0.790179 4.379321 -0.612702
2003-08-27 06:58:47 51°17.98 2°52.22 38.516621 0.96981 5.457426 -0.612702
2003-08-27 06:58:53 51°18 2°52.22 38.043581 0.540049 2.915276 -0.646411
2003-08-27 06:58:57 51°18.01 2°52.21 37.564348 0.643921 3.517091 -0.612702
2003-08-27 06:59:01 51°18.02 2°52.21 38.711755 0.854254 4.760538 -0.612702
2003-08-27 06:59:05 51°18.04 2°52.21 38.477531 0.449385 2.396375 -0.612702
2003-08-27 06:59:13 51°18.06 2°52.21 38.477531 0.449385 2.396375 -0.612702
2003-08-27 06:59:17 51°18.08 2°52.2 37.540296 0.575118 3.115487 -0.646411
2003-08-27 06:59:21 51°18.09 2°52.2 37.669947 0.800839 4.439513 -0.646411
2003-08-27 06:59:29 51°18.12 2°52.2 38.478354 0.492467 2.640381 -0.612702
2003-08-27 06:59:31 51°18.12 2°52.2 38.557969 0.642041 3.503311 -0.646411
2003-08-27 06:59:37 51°18.14 2°52.2 37.93385 0.69468 3.810796 -0.612702
2003-08-27 06:59:41 51°18.15 2°52.2 37.93385 0.69468 3.810796 -0.612702
2003-08-27 06:59:49 51°18.18 2°52.21 38.766097 0.60654 3.29688 -0.612702
2003-08-27 06:59:53 51°18.19 2°52.21 37.517071 0.479844 2.568597 -0.646411
2003-08-27 06:59:55 51°18.2 2°52.22 37.517167 0.949413 5.33004 -0.646411
2003-08-27 07:00:09 51°18.24 2°52.24 38.302106 0.824357 4.579619 -0.612702
2003-08-27 07:00:13 51°18.25 2°52.25 38.354662 0.603408 3.279832 -0.612702
2003-08-27 07:00:19 51°18.27 2°52.27 38.354662 0.603408 3.279832 -0.612702
2003-08-27 07:00:21 51°18.27 2°52.27 37.572416 1.023897 5.782943 -0.612702
2003-08-27 07:00:29 51°18.29 2°52.29 37.912524 0.492363 2.641482 -0.612702
2003-08-27 07:00:31 51°18.3 2°52.29 38.173726 0.725184 3.993596 -0.612702
2003-08-27 07:00:45 51°18.34 2°52.33 37.913448 0.502379 2.69834 -0.646411
2003-08-27 07:00:49 51°18.34 2°52.35 37.653093 0.73793 4.068572 -0.612702
2003-08-27 07:00:53 51°18.35 2°52.36 37.653093 0.73793 4.068572 -0.612702
2003-08-27 07:00:57 51°18.36 2°52.37 37.233464 0.494971 2.656153 -0.646411
2003-08-27 07:01:05 51°18.38 2°52.4 37.076175 0.946903 5.317562 -0.612702
2003-08-27 07:01:09 51°18.39 2°52.42 37.128768 0.66063 3.615353 -0.612702
2003-08-27 07:01:21 51°18.41 2°52.47 37.104649 0.785789 4.354747 -0.612702
2003-08-27 07:01:25 51°18.41 2°52.49 37.463963 0.671701 3.681438 -0.612702
2003-08-27 07:01:29 51°18.42 2°52.5 37.463963 0.671701 3.681438 -0.612702
2003-08-27 07:01:33 51°18.43 2°52.52 36.806482 0.544954 2.944394 -0.612702
2003-08-27 07:01:41 51°18.44 2°52.56 36.389581 0.608629 3.312839 -0.646411
2003-08-27 07:01:45 51°18.44 2°52.58 37.956254 0.737094 4.065502 -0.612702
2003-08-27 07:01:51 51°18.45 2°52.6 38.197366 0.552677 2.988519 -0.646411
2003-08-27 07:01:57 51°18.46 2°52.63 38.492789 0.618861 3.372253 -0.612702
2003-08-27 07:02:01 51°18.46 2°52.65 38.492789 0.618861 3.372253 -0.612702
2003-08-27 07:02:05 51°18.47 2°52.67 37.467169 0.789342 4.374605 -0.612702
2003-08-27 07:02:09 51°18.47 2°52.69 37.842384 0.68319 3.746784 -0.612702
2003-08-27 07:02:21 51°18.49 2°52.74 37.311848 0.876315 4.892223 -0.612702
2003-08-27 07:02:25 51°18.49 2°52.76 38.252499 0.917305 5.138383 -0.612702
2003-08-27 07:02:31 51°18.5 2°52.79 38.252499 0.917305 5.138383 -0.612702
2003-08-27 07:02:33 51°18.51 2°52.8 40.137872 0.504987 2.713182 -0.612702
2003-08-27 07:02:41 51°18.52 2°52.83 38.043995 0.547354 2.956657 -0.646411
2003-08-27 07:02:45 51°18.52 2°52.85 38.184085 0.4084 2.165208 -0.612702
2003-08-27 07:02:51 51°18.53 2°52.88 39.04081 0.413301 2.193083 -0.578993
2003-08-27 07:02:53 51°18.53 2°52.89 38.513235 0.610299 3.32193 -0.612702
2003-08-27 07:03:01 51°18.54 2°52.93 38.513235 0.610299 3.32193 -0.612702
2003-08-27 07:03:05 51°18.55 2°52.95 37.890809 0.723408 3.984325 -0.646411
2003-08-27 07:03:11 51°18.55 2°52.97 37.796037 0.535144 2.887312 -0.612702
2003-08-27 07:03:13 51°18.56 2°52.98 37.372793 0.483078 2.588832 -0.612702
2003-08-27 07:03:21 51°18.56 2°53.02 37.972313 0.689144 3.781995 -0.612702
2003-08-27 07:03:25 51°18.57 2°53.04 38.360813 0.45387 2.422396 -0.612702
2003-08-27 07:03:31 51°18.58 2°53.07 38.360813 0.45387 2.422396 -0.612702
2003-08-27 07:03:33 51°18.58 2°53.08 38.569259 0.493928 2.650345 -0.612702
2003-08-27 07:03:41 51°18.59 2°53.12 38.441368 0.619487 3.374691 -0.612702
2003-08-27 07:03:51 51°18.6 2°53.17 38.079668 0.493928 2.65042 -0.612702
2003-08-27 07:04:01 51°18.61 2°53.21 38.442381 0.515213 2.772483 -0.612702
2003-08-27 07:04:05 51°18.62 2°53.23 38.442381 0.515213 2.772483 -0.612702
2003-08-27 07:04:13 51°18.62 2°53.27 40.707705 0.543284 2.934022 -0.646411
2003-08-27 07:04:17 51°18.63 2°53.29 40.707705 0.543284 2.934022 -0.646411
2003-08-27 07:04:21 51°18.63 2°53.31 38.444915 0.424563 2.25698 -0.612702
2003-08-27 07:04:29 51°18.64 2°53.35 37.427822 0.642668 3.510581 -0.612702
2003-08-27 07:04:33 51°18.65 2°53.37 40.190989 0.631704 3.446621 -0.646411
2003-08-27 07:04:39 51°18.65 2°53.4 38.421569 0.45241 2.414525 -0.612702
2003-08-27 07:04:41 51°18.65 2°53.41 37.243463 0.480157 2.572399 -0.612702
2003-08-27 07:04:49 51°18.66 2°53.44 37.243463 0.480157 2.572399 -0.612702
2003-08-27 07:04:59 51°18.67 2°53.49 37.256033 0.62429 3.40289 -0.612702
2003-08-27 07:05:05 51°18.68 2°53.52 37.451394 0.443857 2.365731 -0.612702
2003-08-27 07:05:09 51°18.68 2°53.54 37.745158 0.35888 1.887743 -0.578993
2003-08-27 07:05:13 51°18.69 2°53.56 38.034349 0.56802 3.07576 -0.612702
2003-08-27 07:05:17 51°18.69 2°53.58 38.034349 0.56802 3.07576 -0.612702
2003-08-27 07:05:21 51°18.7 2°53.6 36.721321 0.745349 4.112393 -0.612702
2003-08-27 07:05:29 51°18.71 2°53.64 37.960875 0.607898 3.307123 -0.612702
2003-08-27 07:05:33 51°18.71 2°53.65 38.449128 0.428735 2.280476 -0.646411
2003-08-27 07:05:37 51°18.71 2°53.67 38.37508 0.480574 2.574557 -0.612702
2003-08-27 07:05:45 51°18.72 2°53.71 38.736848 0.503839 2.707507 -0.612702
2003-08-27 07:05:49 51°18.73 2°53.73 38.736848 0.503839 2.707507 -0.612702
2003-08-27 07:05:53 51°18.73 2°53.75 37.541385 0.813277 4.516735 -0.612702
2003-08-27 07:05:57 51°18.74 2°53.77 39.750714 0.552364 2.986415 -0.612702
2003-08-27 07:06:07 51°18.75 2°53.81 39.94076 0.401414 2.126556 -0.646411
2003-08-27 07:06:27 51°18.77 2°53.91 40.173256 0.557687 3.017717 -0.612702
2003-08-27 07:06:29 51°18.77 2°53.92 40.076556 0.563114 3.048917 -0.646411
2003-08-27 07:06:37 51°18.78 2°53.96 40.076556 0.563114 3.048917 -0.646411
2003-08-27 07:06:41 51°18.78 2°53.98 39.518445 0.421331 2.238989 -0.612702
2003-08-27 07:06:45 51°18.79 2°54 38.734986 0.519699 2.79877 -0.612702
2003-08-27 07:06:49 51°18.79 2°54.02 39.774459 0.577519 3.131648 -0.612702
2003-08-27 07:06:57 51°18.8 2°54.05 40.385673 0.429778 2.286108 -0.612702
2003-08-27 07:07:01 51°18.81 2°54.07 39.979618 0.470142 2.514999 -0.612702
2003-08-27 07:07:07 51°18.81 2°54.1 39.979618 0.470142 2.514999 -0.612702
2003-08-27 07:07:11 51°18.82 2°54.12 40.002084 0.435722 2.319683 -0.646411
2003-08-27 07:07:21 51°18.83 2°54.17 39.972127 0.524708 2.827314 -0.612702
2003-08-27 07:07:27 51°18.84 2°54.2 40.460013 0.406419 2.154799 -0.646411
2003-08-27 07:07:31 51°18.84 2°54.22 40.004912 0.476505 2.551847 -0.612702
2003-08-27 07:07:37 51°18.85 2°54.24 40.004912 0.476505 2.551847 -0.612702
2003-08-27 07:07:41 51°18.85 2°54.26 39.4444 0.599963 3.261896 -0.612702
2003-08-27 07:07:45 51°18.86 2°54.28 39.007068 0.730826 4.028084 -0.646411
2003-08-27 07:07:49 51°18.86 2°54.3 38.535352 0.732393 4.037565 -0.612702
2003-08-27 07:07:57 51°18.87 2°54.34 39.335491 0.504987 2.714268 -0.612702
2003-08-27 07:08:01 51°18.87 2°54.36 38.330624 0.563532 3.05111 -0.612702
2003-08-27 07:08:07 51°18.88 2°54.39 38.330624 0.563532 3.05111 -0.612702
2003-08-27 07:08:09 51°18.88 2°54.4 38.536016 0.578458 3.137803 -0.646411
2003-08-27 07:08:17 51°18.89 2°54.44 39.577059 0.431655 2.297143 -0.612702
2003-08-27 07:08:21 51°18.9 2°54.46 40.214265 0.474732 2.54149 -0.612702
2003-08-27 07:08:25 51°18.9 2°54.47 39.318417 0.458251 2.447857 -0.612702
2003-08-27 07:08:29 51°18.9 2°54.49 39.23594 0.378374 1.997106 -0.612702
2003-08-27 07:08:41 51°18.92 2°54.55 40.113984 0.61458 3.346675 -0.612702
2003-08-27 07:08:45 51°18.92 2°54.57 39.876371 0.412467 2.188602 -0.612702
2003-08-27 07:08:49 51°18.93 2°54.59 39.005055 0.58493 3.174779 -0.612702
2003-08-27 07:08:53 51°18.93 2°54.61 39.70919 0.527526 2.843655 -0.612702
2003-08-27 07:09:01 51°18.94 2°54.65 39.70919 0.527526 2.843655 -0.612702
2003-08-27 07:09:05 51°18.94 2°54.67 39.5705 0.778474 4.310377 -0.646411
2003-08-27 07:09:09 51°18.95 2°54.69 40.055849 0.566454 3.067946 -0.612702
2003-08-27 07:09:15 51°18.96 2°54.72 39.350557 0.639013 3.489001 -0.612702
2003-08-27 07:09:21 51°18.96 2°54.74 38.860586 0.472646 2.529248 -0.612702
2003-08-27 07:09:25 51°18.97 2°54.76 39.092134 0.678594 3.720258 -0.646411
2003-08-27 07:09:29 51°18.97 2°54.78 39.092134 0.678594 3.720258 -0.646411
2003-08-27 07:09:41 51°18.99 2°54.84 39.239421 0.484016 2.593779 -0.646411
2003-08-27 07:09:45 51°18.99 2°54.86 38.604512 0.629511 3.433004 -0.612702
2003-08-27 07:09:51 51°19 2°54.89 40.313402 0.374204 1.973329 -0.646411
2003-08-27 07:09:55 51°19 2°54.91 39.660157 0.419558 2.228159 -0.612702
2003-08-27 07:10:01 51°19.01 2°54.94 39.660157 0.419558 2.228159 -0.612702
2003-08-27 07:10:05 51°19.01 2°54.96 40.042807 0.378895 2.000081 -0.612702
2003-08-27 07:10:09 51°19.02 2°54.98 39.666834 0.578876 3.139905 -0.646411
2003-08-27 07:10:21 51°19.03 2°55.03 37.456524 0.460963 2.463933 -0.612702
2003-08-27 07:10:25 51°19.04 2°55.05 38.986747 0.570003 3.089427 -0.646411
2003-08-27 07:10:29 51°19.04 2°55.07 38.986747 0.570003 3.089427 -0.646411
2003-08-27 07:10:35 51°19.05 2°55.1 38.573592 0.448968 2.395789 -0.646411
2003-08-27 07:10:41 51°19.06 2°55.13 38.859074 0.471707 2.525094 -0.612702
2003-08-27 07:10:45 51°19.06 2°55.15 40.022277 0.343663 1.803714 -0.612702
2003-08-27 07:10:49 51°19.07 2°55.17 40.232578 0.521786 2.810263 -0.612702
2003-08-27 07:10:57 51°19.08 2°55.21 39.828124 0.607585 3.305777 -0.646411
2003-08-27 07:11:01 51°19.08 2°55.23 39.828124 0.607585 3.305777 -0.646411
2003-08-27 07:11:09 51°19.09 2°55.27 38.688613 0.723721 3.985659 -0.612702
2003-08-27 07:11:13 51°19.1 2°55.29 39.253157 0.694993 3.817335 -0.646411
2003-08-27 07:11:17 51°19.1 2°55.31 39.069918 0.740647 4.086724 -0.646411
2003-08-27 07:11:25 51°19.11 2°55.35 39.069918 0.740647 4.086724 -0.646411
2003-08-27 07:11:29 51°19.11 2°55.37 40.297089 0.736363 4.061707 -0.612702
2003-08-27 07:11:35 51°19.12 2°55.4 39.581056 0.664703 3.641016 -0.612702
2003-08-27 07:11:39 51°19.13 2°55.42 39.967589 0.47421 2.538846 -0.646411
2003-08-27 07:11:45 51°19.13 2°55.45 39.840796 0.462423 2.471069 -0.646411
2003-08-27 07:11:49 51°19.14 2°55.47 39.914949 0.546728 2.953009 -0.612702
2003-08-27 07:11:53 51°19.14 2°55.49 39.914949 0.546728 2.953009 -0.612702
2003-08-27 07:11:59 51°19.15 2°55.52 38.581876 0.488607 2.619742 -0.612702
2003-08-27 07:12:05 51°19.16 2°55.55 39.174443 0.531804 2.867787 -0.646411
2003-08-27 07:12:09 51°19.16 2°55.57 38.505988 0.528361 2.848125 -0.612702
2003-08-27 07:12:13 51°19.17 2°55.59 38.686655 0.511248 2.750195 -0.612702
2003-08-27 07:12:17 51°19.17 2°55.61 39.019868 0.434888 2.315526 -0.646411
2003-08-27 07:12:25 51°19.18 2°55.65 39.019868 0.434888 2.315526 -0.646411
2003-08-27 07:12:29 51°19.19 2°55.67 39.510381 0.630137 3.437196 -0.646411
2003-08-27 07:12:33 51°19.19 2°55.69 38.868873 0.529822 2.856517 -0.646411
2003-08-27 07:12:39 51°19.2 2°55.71 40.554964 0.696247 3.823715 -0.612702
2003-08-27 07:12:45 51°19.21 2°55.74 40.044919 0.466178 2.492594 -0.646411
2003-08-27 07:12:49 51°19.21 2°55.76 38.818857 0.578876 3.139725 -0.612702
2003-08-27 07:12:55 51°19.22 2°55.79 38.818857 0.578876 3.139725 -0.612702
2003-08-27 07:12:59 51°19.22 2°55.81 40.563235 0.59276 3.220522 -0.612702
2003-08-27 07:13:05 51°19.23 2°55.84 39.437955 0.66909 3.666452 -0.612702
2003-08-27 07:13:09 51°19.23 2°55.86 39.529915 0.588375 3.196751 -0.612702
2003-08-27 07:13:13 51°19.24 2°55.88 40.026005 0.720065 3.967062 -0.646411
2003-08-27 07:13:19 51°19.24 2°55.91 39.771904 0.502796 2.70374 -0.612702
2003-08-27 07:13:25 51°19.25 2°55.94 39.771904 0.502796 2.70374 -0.612702
2003-08-27 07:13:29 51°19.25 2°55.96 40.559408 0.696142 3.826282 -0.612702
2003-08-27 07:13:33 51°19.26 2°55.98 40.458808 0.747334 4.128211 -0.612702
2003-08-27 07:13:37 51°19.26 2°56 39.825166 0.602782 3.279998 -0.612702
2003-08-27 07:13:45 51°19.27 2°56.04 40.080467 0.508326 2.734321 -0.646411
2003-08-27 07:13:49 51°19.27 2°56.06 39.381057 0.412259 2.188302 -0.646411
2003-08-27 07:13:53 51°19.28 2°56.08 39.381057 0.412259 2.188302 -0.646411
2003-08-27 07:13:57 51°19.28 2°56.1 39.254161 0.655931 3.588636 -0.612702
2003-08-27 07:14:05 51°19.29 2°56.14 39.562035 0.593804 3.226807 -0.612702
2003-08-27 07:14:09 51°19.3 2°56.16 39.263316 0.674939 3.699835 -0.612702
2003-08-27 07:14:21 51°19.31 2°56.23 38.997254 0.899423 5.034744 -0.612702
2003-08-27 07:14:27 51°19.32 2°56.25 39.782466 0.407983 2.164312 -0.646411
2003-08-27 07:14:30 51°19.32 2°56.27 40.250824 0.453244 2.420262 -0.646411
2003-08-27 07:14:42 51°19.33 2°56.33 39.879048 0.589941 3.204913 -0.612702
2003-08-27 07:14:46 51°19.34 2°56.35 40.287336 0.474315 2.54013 -0.612702
2003-08-27 07:14:50 51°19.34 2°56.37 40.126549 0.416012 2.209527 -0.612702
2003-08-27 07:15:02 51°19.35 2°56.43 40.11144 0.5604 3.033466 -0.646411
2003-08-27 07:15:06 51°19.36 2°56.45 38.77556 0.311045 1.623446 -0.646411
2003-08-27 07:15:10 51°19.36 2°56.47 40.417581 0.585035 3.175974 -0.612702
2003-08-27 07:15:18 51°19.37 2°56.51 41.045904 0.609986 3.321251 -0.612702
2003-08-27 07:15:22 51°19.37 2°56.53 40.527988 0.341579 1.793079 -0.646411
2003-08-27 07:15:30 51°19.38 2°56.57 40.315352 0.691337 3.797596 -0.612702
2003-08-27 07:15:34 51°19.39 2°56.59 40.695722 0.447507 2.388121 -0.612702
2003-08-27 07:15:42 51°19.4 2°56.63 40.02734 0.567394 3.074562 -0.612702
2003-08-27 07:15:48 51°19.4 2°56.66 39.42497 0.834287 4.643894 -0.646411
2003-08-27 07:15:54 51°19.41 2°56.69 40.561198 0.523352 2.820495 -0.612702
2003-08-27 07:15:58 51°19.41 2°56.71 40.216806 0.49664 2.66771 -0.612702
2003-08-27 07:16:02 51°19.42 2°56.73 38.98099 0.509474 2.741838 -0.612702
2003-08-27 07:16:06 51°19.42 2°56.75 40.029981 0.66533 3.645784 -0.646411
2003-08-27 07:16:14 51°19.43 2°56.79 40.029981 0.66533 3.645784 -0.646411
2003-08-27 07:16:18 51°19.44 2°56.81 39.299114 0.436348 2.325314 -0.612702
2003-08-27 07:16:30 51°19.45 2°56.87 40.87621 0.501857 2.69821 -0.612702
2003-08-27 07:16:34 51°19.46 2°56.89 39.761185 0.366073 1.929973 -0.646411
2003-08-27 07:16:40 51°19.46 2°56.92 40.616416 0.675565 3.704943 -0.612702
2003-08-27 07:16:44 51°19.47 2°56.94 40.161163 0.773667 4.283209 -0.612702
2003-08-27 07:16:50 51°19.47 2°56.97 40.161163 0.773667 4.283209 -0.612702
2003-08-27 07:17:02 51°19.49 2°57.03 39.840578 0.682563 3.745684 -0.612702
2003-08-27 07:17:06 51°19.49 2°57.05 39.959352 0.536292 2.895405 -0.646411
2003-08-27 07:17:12 51°19.5 2°57.08 40.902151 0.354815 1.866747 -0.612702
2003-08-27 07:17:18 51°19.51 2°57.11 39.740054 0.641102 3.503195 -0.612702
2003-08-27 07:17:22 51°19.51 2°57.12 40.164481 0.447403 2.387257 -0.646411
2003-08-27 07:17:26 51°19.52 2°57.14 40.469343 0.510308 2.746033 -0.612702
2003-08-27 07:17:36 51°19.53 2°57.19 39.707662 0.591925 3.2166 -0.578993
2003-08-27 07:17:42 51°19.54 2°57.22 41.315323 0.361382 1.903479 -0.612702
2003-08-27 07:17:46 51°19.54 2°57.24 40.163706 0.531909 2.87048 -0.612702
2003-08-27 07:17:50 51°19.55 2°57.26 41.401534 0.431342 2.296785 -0.646411
2003-08-27 07:17:54 51°19.55 2°57.28 41.401534 0.431342 2.296785 -0.646411
2003-08-27 07:18:00 51°19.56 2°57.31 40.370055 0.291874 1.518221 -0.612702
2003-08-27 07:18:04 51°19.56 2°57.33 39.75863 0.478279 2.563198 -0.646411
2003-08-27 07:18:14 51°19.58 2°57.37 41.257575 0.305731 1.594595 -0.612702
2003-08-27 07:18:18 51°19.58 2°57.39 41.257575 0.305731 1.594595 -0.612702
2003-08-27 07:18:26 51°19.59 2°57.43 39.404253 0.483599 2.594365 -0.646411
2003-08-27 07:18:32 51°19.6 2°57.46 39.404253 0.483599 2.594365 -0.646411
2003-08-27 07:18:36 51°19.6 2°57.48 40.83101 0.537857 2.905453 -0.646411
2003-08-27 07:18:42 51°19.61 2°57.51 40.037683 0.650396 3.559132 -0.612702
2003-08-27 07:18:46 51°19.62 2°57.53 39.329006 0.512604 2.760454 -0.646411
2003-08-27 07:18:50 51°19.62 2°57.55 40.029701 0.661675 3.624216 -0.612702
2003-08-27 07:18:58 51°19.63 2°57.58 40.223066 0.554764 3.002188 -0.612702
2003-08-27 07:19:06 51°19.64 2°57.62 40.730466 0.83021 4.620878 -0.612702
2003-08-27 07:19:12 51°19.65 2°57.65 40.199513 0.920756 5.16435 -0.646411
2003-08-27 07:19:18 51°19.65 2°57.68 40.250453 0.461484 2.467779 -0.612702
2003-08-27 07:19:22 51°19.66 2°57.7 38.995115 0.500292 2.689175 -0.612702
2003-08-27 07:19:26 51°19.66 2°57.72 41.560364 0.815681 4.53379 -0.612702
2003-08-27 07:19:30 51°19.67 2°57.74 39.666584 0.454183 2.426389 -0.612702
2003-08-27 07:19:40 51°19.68 2°57.79 41.462997 0.650291 3.557399 -0.646411
2003-08-27 07:19:46 51°19.69 2°57.81 40.558544 0.827493 4.604981 -0.612702
2003-08-27 07:19:50 51°19.69 2°57.83 40.533359 0.62617 3.416673 -0.612702
2003-08-27 07:19:58 51°19.7 2°57.87 40.634608 0.588793 3.199814 -0.612702
2003-08-27 07:20:06 51°19.71 2°57.91 40.584338 0.593177 3.225391 -0.612702
2003-08-27 07:20:10 51°19.72 2°57.93 40.987813 0.45314 2.42088 -0.612702
2003-08-27 07:20:22 51°19.73 2°57.98 41.039461 0.549233 2.970962 -0.612702
2003-08-27 07:20:26 51°19.73 2°58 41.333575 0.506031 2.722732 -0.646411
2003-08-27 07:20:32 51°19.74 2°58.03 41.333575 0.506031 2.722732 -0.646411
2003-08-27 07:20:42 51°19.75 2°58.08 41.066914 0.61458 3.349265 -0.646411
2003-08-27 07:20:46 51°19.76 2°58.1 40.882419 0.735318 4.057107 -0.646411
2003-08-27 07:20:50 51°19.76 2°58.12 40.437085 0.555808 3.007996 -0.612702
2003-08-27 07:20:58 51°19.77 2°58.16 41.893507 0.364718 1.921827 -0.612702
2003-08-27 07:21:02 51°19.78 2°58.18 41.818173 0.624708 3.407322 -0.646411
2003-08-27 07:21:06 51°19.78 2°58.19 41.818173 0.624708 3.407322 -0.646411
2003-08-27 07:21:10 51°19.79 2°58.21 41.546004 0.583573 3.168234 -0.646411
2003-08-27 07:21:18 51°19.8 2°58.25 41.569905 0.281977 1.464181 -0.646411
2003-08-27 07:21:22 51°19.8 2°58.27 40.792863 0.382752 2.023612 -0.612702
2003-08-27 07:21:26 51°19.81 2°58.29 41.297037 0.538796 2.91157 -0.646411
2003-08-27 07:21:34 51°19.82 2°58.33 41.044431 0.491215 2.639154 -0.612702
2003-08-27 07:21:38 51°19.82 2°58.35 41.044431 0.491215 2.639154 -0.612702
2003-08-27 07:21:42 51°19.83 2°58.37 40.00864 0.44782 2.39205 -0.612702
2003-08-27 07:21:48 51°19.83 2°58.39 41.423798 0.572091 3.104388 -0.612702
2003-08-27 07:22:02 51°19.85 2°58.46 40.57027 0.40058 2.123776 -0.646411
2003-08-27 07:22:06 51°19.85 2°58.48 40.612067 0.433636 2.309964 -0.612702
2003-08-27 07:22:10 51°19.86 2°58.5 41.024796 0.667106 3.656818 -0.646411
2003-08-27 07:22:22 51°19.87 2°58.56 39.785363 0.448968 2.397879 -0.646411
2003-08-27 07:22:26 51°19.88 2°58.57 39.660906 0.497892 2.676746 -0.646411
2003-08-27 07:22:30 51°19.88 2°58.59 38.887838 0.520117 2.804213 -0.612702
2003-08-27 07:22:38 51°19.89 2°58.63 39.044016 0.523665 2.824434 -0.612702
2003-08-27 07:22:46 51°19.9 2°58.67 39.916037 0.373474 1.971949 -0.612702
2003-08-27 07:22:50 51°19.91 2°58.69 39.916037 0.373474 1.971949 -0.612702
2003-08-27 07:22:52 51°19.91 2°58.7 39.060017 0.558835 3.026985 -0.646411
2003-08-27 07:23:02 51°19.92 2°58.74 39.867534 0.356587 1.877615 -0.612702
2003-08-27 07:23:08 51°19.93 2°58.77 39.867534 0.356587 1.877615 -0.612702
2003-08-27 07:23:10 51°19.93 2°58.78 39.063757 0.497266 2.673393 -0.646411
2003-08-27 07:23:22 51°19.95 2°58.84 38.687255 0.504361 2.713867 -0.612702
2003-08-27 07:23:26 51°19.95 2°58.86 39.116575 0.577415 3.135263 -0.646411
2003-08-27 07:23:32 51°19.96 2°58.88 39.116575 0.577415 3.135263 -0.646411
2003-08-27 07:23:38 51°19.96 2°58.91 40.199854 0.874224 4.887195 -0.612702
2003-08-27 07:23:42 51°19.97 2°58.93 39.347676 0.588897 3.201383 -0.646411
2003-08-27 07:23:46 51°19.97 2°58.95 39.247575 0.501022 2.694473 -0.646411
2003-08-27 07:23:50 51°19.98 2°58.97 39.32603 0.457833 2.447445 -0.612702
2003-08-27 07:24:02 51°19.99 2°59.03 39.274352 0.49831 2.678751 -0.646411
2003-08-27 07:24:06 51°20 2°59.05 38.656998 0.378478 1.999715 -0.646411
2003-08-27 07:24:12 51°20 2°59.07 39.03776 0.549128 2.971041 -0.646411
2003-08-27 07:24:18 51°20.01 2°59.1 39.943061 0.470664 2.521281 -0.612702
2003-08-27 07:24:26 51°20.02 2°59.14 39.61147 0.558313 3.025314 -0.646411
2003-08-27 07:24:30 51°20.02 2°59.16 39.61147 0.558313 3.025314 -0.646411
2003-08-27 07:24:42 51°20.04 2°59.22 39.36393 0.434679 2.317755 -0.612702
2003-08-27 07:24:46 51°20.04 2°59.23 40.047186 0.563949 3.057985 -0.612702
2003-08-27 07:24:52 51°20.05 2°59.26 39.511225 0.629616 3.439326 -0.646411
2003-08-27 07:24:54 51°20.05 2°59.27 39.844718 0.413197 2.19566 -0.612702
2003-08-27 07:25:02 51°20.06 2°59.31 39.844718 0.413197 2.19566 -0.612702
2003-08-27 07:25:06 51°20.07 2°59.33 39.024271 0.671492 3.684016 -0.612702
2003-08-27 07:25:10 51°20.07 2°59.35 40.126208 0.495493 2.663586 -0.646411
2003-08-27 07:25:18 51°20.08 2°59.38 39.870552 0.497997 2.678072 -0.646411
2003-08-27 07:25:22 51°20.09 2°59.4 39.565221 0.492571 2.646949 -0.646411
2003-08-27 07:25:30 51°20.09 2°59.44 39.541008 0.4788 2.567384 -0.646411
2003-08-27 07:25:34 51°20.1 2°59.46 39.950741 0.432698 2.305114 -0.680121
2003-08-27 07:25:40 51°20.11 2°59.49 39.771997 0.728214 4.016934 -0.680121
2003-08-27 07:25:44 51°20.11 2°59.51 39.466389 0.586079 3.185033 -0.612702
2003-08-27 07:25:50 51°20.12 2°59.53 39.466389 0.586079 3.185033 -0.612702
2003-08-27 07:25:58 51°20.13 2°59.57 39.02817 0.649769 3.556284 -0.646411
2003-08-27 07:26:06 51°20.14 2°59.61 39.185146 0.569064 3.086116 -0.646411
2003-08-27 07:26:16 51°20.15 2°59.66 39.4337 0.381397 2.016245 -0.680121
2003-08-27 07:26:18 51°20.15 2°59.67 40.308419 0.495493 2.663091 -0.612702
2003-08-27 07:26:24 51°20.16 2°59.69 40.308419 0.495493 2.663091 -0.612702
2003-08-27 07:26:34 51°20.17 2°59.74 39.955777 0.671388 3.683721 -0.646411
2003-08-27 07:26:40 51°20.18 2°59.77 39.931743 0.476505 2.555536 -0.646411
2003-08-27 07:26:46 51°20.18 2°59.8 40.337696 0.508326 2.737728 -0.680121
2003-08-27 07:26:54 51°20.19 2°59.84 38.983066 0.567081 3.076497 -0.680121
2003-08-27 07:27:00 51°20.2 2°59.87 39.396083 0.410382 2.180404 -0.680121
2003-08-27 07:27:06 51°20.21 2°59.89 39.49869 0.479322 2.571648 -0.680121
2003-08-27 07:27:10 51°20.21 2°59.91 38.882514 0.738871 4.081791 -0.646411
2003-08-27 07:27:14 51°20.21 2°59.93 39.345107 0.631808 3.452125 -0.680121
2003-08-27 07:27:18 51°20.22 2°59.95 39.345107 0.631808 3.452125 -0.680121
2003-08-27 07:27:24 51°20.23 2°59.98 40.281453 0.540258 2.921283 -0.680121
2003-08-27 07:27:30 51°20.23 3°0.01 39.706945 0.525543 2.835839 -0.680121
2003-08-27 07:27:38 51°20.24 3°0.05 40.864467 0.77398 4.289687 -0.646411
2003-08-27 07:27:42 51°20.25 3°0.06 40.864467 0.77398 4.289687 -0.646411
2003-08-27 07:27:48 51°20.25 3°0.09 41.398082 0.865337 4.835682 -0.680121
2003-08-27 07:27:54 51°20.26 3°0.12 40.005409 0.79091 4.390724 -0.680121
2003-08-27 07:28:04 51°20.27 3°0.17 41.600412 0.393908 2.087271 -0.646411
2003-08-27 07:28:10 51°20.28 3°0.2 40.79317 0.538379 2.909999 -0.680121
2003-08-27 07:28:18 51°20.29 3°0.23 40.499088 0.348874 1.835253 -0.680121
2003-08-27 07:28:26 51°20.3 3°0.27 41.027618 0.635985 3.477264 -0.646411
2003-08-27 07:28:30 51°20.3 3°0.29 41.027618 0.635985 3.477264 -0.646411
2003-08-27 07:28:42 51°20.32 3°0.35 40.894345 0.640371 3.503195 -0.680121
2003-08-27 07:28:46 51°20.32 3°0.37 41.122467 0.447716 2.392074 -0.646411
2003-08-27 07:28:50 51°20.33 3°0.38 40.922246 0.450532 2.408002 -0.646411
2003-08-27 07:28:56 51°20.33 3°0.41 41.883791 0.508326 2.737768 -0.680121
2003-08-27 07:29:02 51°20.34 3°0.44 41.883791 0.508326 2.737768 -0.680121
2003-08-27 07:29:04 51°20.34 3°0.45 41.300309 0.538483 2.910767 -0.612702
2003-08-27 07:29:14 51°20.35 3°0.5 42.518802 0.2975 1.551184 -0.646411
2003-08-27 07:29:20 51°20.36 3°0.53 42.518802 0.2975 1.551184 -0.646411
2003-08-27 07:29:24 51°20.37 3°0.55 40.898709 0.469725 2.517878 -0.680121
2003-08-27 07:29:30 51°20.37 3°0.57 41.574172 0.588584 3.202137 -0.646411
2003-08-27 07:29:38 51°20.38 3°0.61 41.101563 0.476401 2.5556 -0.646411
2003-08-27 07:29:44 51°20.39 3°0.64 40.8506 0.433741 2.312935 -0.646411
2003-08-27 07:29:50 51°20.4 3°0.67 40.8506 0.433741 2.312935 -0.646411
2003-08-27 07:29:52 51°20.4 3°0.68 41.429141 0.639744 3.499181 -0.646411
2003-08-27 07:30:02 51°20.41 3°0.73 42.423461 0.470142 2.519499 -0.680121
2003-08-27 07:30:06 51°20.41 3°0.75 42.423461 0.470142 2.519499 -0.680121
2003-08-27 07:30:14 51°20.42 3°0.78 41.030134 0.324071 1.697873 -0.646411
2003-08-27 07:30:18 51°20.43 3°0.8 41.030134 0.324071 1.697873 -0.646411
2003-08-27 07:30:26 51°20.44 3°0.84 41.98124 0.400476 2.125102 -0.646411
2003-08-27 07:30:30 51°20.44 3°0.86 42.329129 0.487981 2.621977 -0.646411
2003-08-27 07:30:32 51°20.44 3°0.87 41.618174 0.542032 2.932687 -0.680121
2003-08-27 07:30:38 51°20.45 3°0.9 41.669643 0.73396 4.055019 -0.646411
2003-08-27 07:30:46 51°20.46 3°0.94 42.229215 0.379937 2.010304 -0.646411
2003-08-27 07:30:50 51°20.46 3°0.96 42.380761 0.828956 4.620623 -0.646411
2003-08-27 07:30:54 51°20.47 3°0.97 42.652823 0.487251 2.618477 -0.646411
2003-08-27 07:31:02 51°20.48 3°1.01 42.652823 0.487251 2.618477 -0.646411
2003-08-27 07:31:06 51°20.48 3°1.03 41.886615 0.696143 3.831835 -0.646411
2003-08-27 07:31:10 51°20.49 3°1.05 42.009897 0.635985 3.479012 -0.612702
2003-08-27 07:31:14 51°20.49 3°1.07 42.753701 0.448342 2.396932 -0.646411
2003-08-27 07:31:22 51°20.5 3°1.11 43.147861 0.418724 2.228767 -0.612702
2003-08-27 07:31:26 51°20.51 3°1.13 42.583446 0.48819 2.623547 -0.680121
2003-08-27 07:31:30 51°20.51 3°1.15 42.583446 0.48819 2.623547 -0.680121
2003-08-27 07:31:36 51°20.52 3°1.18 42.607923 0.600068 3.268728 -0.646411
2003-08-27 07:31:42 51°20.52 3°1.2 43.198779 0.69562 3.827604 -0.612702
2003-08-27 07:31:46 51°20.53 3°1.22 42.411694 0.427692 2.279141 -0.680121
2003-08-27 07:31:52 51°20.54 3°1.25 43.272992 0.747543 4.135741 -0.612702
2003-08-27 07:32:02 51°20.55 3°1.3 41.867513 0.582321 3.167512 -0.612702
2003-08-27 07:32:08 51°20.55 3°1.33 41.867513 0.582321 3.167512 -0.612702
2003-08-27 07:32:14 51°20.56 3°1.36 42.980688 0.584931 3.182709 -0.646411
2003-08-27 07:32:18 51°20.57 3°1.38 42.316201 0.81589 4.543194 -0.680121
2003-08-27 07:32:22 51°20.57 3°1.4 41.595902 0.693427 3.816116 -0.612702
2003-08-27 07:32:28 51°20.58 3°1.43 42.023843 0.839619 4.68402 -0.646411
2003-08-27 07:32:34 51°20.58 3°1.45 43.331862 0.845787 4.721091 -0.612702
2003-08-27 07:32:38 51°20.59 3°1.47 43.331862 0.845787 4.721091 -0.612702
2003-08-27 07:32:42 51°20.59 3°1.49 40.767811 0.754021 4.173726 -0.646411
2003-08-27 07:32:46 51°20.6 3°1.51 42.718175 0.329073 1.726278 -0.646411
2003-08-27 07:32:50 51°20.6 3°1.53 43.528767 0.559357 3.033434 -0.646411
2003-08-27 07:32:58 51°20.61 3°1.57 41.524413 0.411633 2.189153 -0.680121
2003-08-27 07:33:06 51°20.62 3°1.61 41.589686 0.606541 3.308002 -0.646411
2003-08-27 07:33:10 51°20.63 3°1.63 41.482314 0.554556 3.005719 -0.646411
2003-08-27 07:33:14 51°20.63 3°1.65 39.988226 0.422791 2.251667 -0.612702
2003-08-27 07:33:18 51°20.63 3°1.67 39.988226 0.422791 2.251667 -0.612702
2003-08-27 07:33:26 51°20.64 3°1.71 41.627313 0.360861 1.902932 -0.680121
2003-08-27 07:33:30 51°20.65 3°1.73 41.818629 0.604766 3.295632 -0.680121
2003-08-27 07:33:34 51°20.65 3°1.75 42.152703 0.672432 3.691704 -0.680121
2003-08-27 07:33:38 51°20.66 3°1.77 44.200258 0.447716 2.393341 -0.612702
2003-08-27 07:33:46 51°20.67 3°1.8 42.833595 0.44563 2.381764 -0.646411
2003-08-27 07:33:50 51°20.67 3°1.82 42.833595 0.44563 2.381764 -0.646411
2003-08-27 07:34:06 51°20.69 3°1.9 43.351525 0.563741 3.059322 -0.646411
2003-08-27 07:34:12 51°20.7 3°1.93 44.032422 0.715155 3.944961 -0.646411
2003-08-27 07:34:22 51°20.71 3°1.98 42.196187 0.78788 4.376338 -0.680121
2003-08-27 07:34:26 51°20.72 3°2 42.149162 0.52043 2.809109 -0.646411
2003-08-27 07:34:30 51°20.72 3°2.02 41.924836 0.409235 2.17546 -0.646411
2003-08-27 07:34:38 51°20.73 3°2.06 41.924836 0.409235 2.17546 -0.646411
2003-08-27 07:34:42 51°20.73 3°2.08 43.478318 0.669508 3.676122 -0.612702
2003-08-27 07:34:46 51°20.74 3°2.1 42.275137 0.704291 3.881689 -0.646411
2003-08-27 07:34:52 51°20.75 3°2.13 42.570738 0.467952 2.509565 -0.646411
2003-08-27 07:35:02 51°20.76 3°2.17 43.540943 0.485269 2.608562 -0.646411
2003-08-27 07:35:06 51°20.76 3°2.19 43.540943 0.485269 2.608562 -0.646411
2003-08-27 07:35:12 51°20.77 3°2.22 42.990846 0.395159 2.096883 -0.646411
2003-08-27 07:35:22 51°20.78 3°2.27 42.296623 0.728528 4.025491 -0.646411
2003-08-27 07:35:26 51°20.79 3°2.29 41.953058 0.390363 2.069597 -0.612702
2003-08-27 07:35:32 51°20.79 3°2.32 43.920898 0.736886 4.075084 -0.680121
2003-08-27 07:35:42 51°20.81 3°2.37 43.629871 0.551529 2.989731 -0.680121
2003-08-27 07:35:46 51°20.81 3°2.39 44.324095 0.606123 3.30614 -0.646411
2003-08-27 07:35:52 51°20.82 3°2.42 42.930386 0.457416 2.448716 -0.612702
2003-08-27 07:36:02 51°20.83 3°2.47 39.921262 0.350021 1.843115 -0.646411
2003-08-27 07:36:06 51°20.83 3°2.49 39.921262 0.350021 1.843115 -0.646411
2003-08-27 07:36:10 51°20.84 3°2.5 39.435327 0.443753 2.370659 -0.646411
2003-08-27 07:36:18 51°20.85 3°2.54 39.513257 0.456582 2.443372 -0.646411
2003-08-27 07:36:22 51°20.85 3°2.56 41.612538 0.506865 2.730799 -0.646411
2003-08-27 07:36:26 51°20.86 3°2.58 42.258422 0.622411 3.400667 -0.680121
2003-08-27 07:36:34 51°20.87 3°2.62 43.195132 0.457103 2.447496 -0.680121
2003-08-27 07:36:38 51°20.87 3°2.64 43.195132 0.457103 2.447496 -0.680121
2003-08-27 07:36:42 51°20.88 3°2.66 39.182416 0.576788 3.136402 -0.680121
2003-08-27 07:36:48 51°20.88 3°2.69 43.098409 0.630764 3.45143 -0.646411
2003-08-27 07:37:02 51°20.9 3°2.76 42.118645 0.845369 4.722938 -0.646411
2003-08-27 07:37:06 51°20.9 3°2.78 43.247814 0.498727 2.687026 -0.646411
2003-08-27 07:37:10 51°20.91 3°2.8 42.362255 0.606332 3.309258 -0.680121
2003-08-27 07:37:22 51°20.92 3°2.85 41.153814 0.414031 2.204401 -0.646411
2003-08-27 07:37:26 51°20.93 3°2.87 39.290871 0.494554 2.66321 -0.646411
2003-08-27 07:37:30 51°20.93 3°2.89 41.057775 0.617295 3.373532 -0.646411
2003-08-27 07:37:38 51°20.94 3°2.93 41.004725 0.546102 2.960416 -0.612702
2003-08-27 07:37:46 51°20.95 3°2.97 42.908884 0.476297 2.558927 -0.646411
2003-08-27 07:37:50 51°20.95 3°2.99 42.908884 0.476297 2.558927 -0.646411
2003-08-27 07:37:54 51°20.96 3°3.01 40.809385 0.756843 4.196858 -0.646411
2003-08-27 07:37:58 51°20.96 3°3.03 40.607781 0.565933 3.075588 -0.612702
2003-08-27 07:38:06 51°20.97 3°3.07 42.614756 0.435514 2.326544 -0.612702
2003-08-27 07:38:10 51°20.98 3°3.09 41.348247 0.40986 2.181301 -0.612702
2003-08-27 07:38:14 51°20.98 3°3.11 44.691727 0.403187 2.143591 -0.646411
2003-08-27 07:38:18 51°20.99 3°3.13 44.691727 0.403187 2.143591 -0.646411
2003-08-27 07:38:26 51°21 3°3.17 41.614701 0.408713 2.174697 -0.646411
2003-08-27 07:38:30 51°21 3°3.18 42.233721 0.622307 3.402845 -0.646411
2003-08-27 07:38:34 51°21.01 3°3.2 42.608314 0.480574 2.58368 -0.680121
2003-08-27 07:38:38 51°21.01 3°3.22 42.075575 0.486312 2.615619 -0.646411
2003-08-27 07:38:46 51°21.02 3°3.26 41.951267 0.702097 3.870198 -0.680121
2003-08-27 07:38:54 51°21.03 3°3.3 41.676188 0.634837 3.474195 -0.612702
2003-08-27 07:38:58 51°21.03 3°3.32 40.943749 0.431446 2.302806 -0.646411
2003-08-27 07:39:06 51°21.04 3°3.36 42.042667 0.371076 1.962596 -0.680121
2003-08-27 07:39:10 51°21.05 3°3.38 41.723057 0.626274 3.426815 -0.680121
2003-08-27 07:39:14 51°21.05 3°3.4 42.323903 0.637447 3.492324 -0.646411
2003-08-27 07:39:18 51°21.06 3°3.42 42.323903 0.637447 3.492324 -0.646411
2003-08-27 07:39:26 51°21.07 3°3.46 43.581804 0.674626 3.709808 -0.646411
2003-08-27 07:39:32 51°21.07 3°3.49 43.581804 0.674626 3.709808 -0.646411
2003-08-27 07:39:42 51°21.09 3°3.54 39.935505 0.306461 1.602452 -0.646411
2003-08-27 07:39:46 51°21.09 3°3.56 40.605375 0.460963 2.470148 -0.646411
2003-08-27 07:39:52 51°21.1 3°3.59 42.058335 0.508222 2.740389 -0.646411
2003-08-27 07:40:02 51°21.11 3°3.63 42.100384 0.575327 3.128238 -0.646411
2003-08-27 07:40:06 51°21.11 3°3.65 42.100384 0.575327 3.128238 -0.646411
2003-08-27 07:40:14 51°21.12 3°3.69 42.671174 0.591716 3.224815 -0.646411
2003-08-27 07:40:18 51°21.13 3°3.71 42.671174 0.591716 3.224815 -0.646411
2003-08-27 07:40:26 51°21.14 3°3.75 42.616592 0.376289 1.992347 -0.612702
2003-08-27 07:40:30 51°21.14 3°3.77 43.297297 0.516569 2.790637 -0.646411
2003-08-27 07:40:34 51°21.15 3°3.79 43.018349 0.549755 2.982089 -0.680121
2003-08-27 07:40:38 51°21.15 3°3.81 41.393317 0.369617 1.955171 -0.612702
2003-08-27 07:40:42 51°21.16 3°3.83 42.329129 0.600381 3.275487 -0.612702
2003-08-27 07:40:48 51°21.16 3°3.86 42.329129 0.600381 3.275487 -0.612702
2003-08-27 07:41:00 51°21.18 3°3.92 42.081422 0.439373 2.347983 -0.646411
2003-08-27 07:41:06 51°21.18 3°3.95 41.831665 0.578772 3.148951 -0.646411
2003-08-27 07:41:10 51°21.19 3°3.97 44.022656 0.376393 1.992219 -0.646411
2003-08-27 07:41:14 51°21.19 3°3.99 42.381364 0.412572 2.196087 -0.612702
2003-08-27 07:41:22 51°21.2 3°4.03 42.580405 0.799585 4.450121 -0.612702
2003-08-27 07:41:26 51°21.21 3°4.04 42.110802 0.362737 1.916458 -0.646411
2003-08-27 07:41:30 51°21.21 3°4.06 43.416362 0.614893 3.360532 -0.646411
2003-08-27 07:41:42 51°21.23 3°4.12 42.336136 0.525439 2.841836 -0.646411
2003-08-27 07:41:46 51°21.23 3°4.14 42.562968 0.635254 3.480089 -0.646411
2003-08-27 07:41:52 51°21.24 3°4.17 42.115798 0.531283 2.875899 -0.612702
2003-08-27 07:41:56 51°21.24 3°4.19 42.30315 0.527735 2.854986 -0.646411
2003-08-27 07:42:02 51°21.25 3°4.22 42.30315 0.527735 2.854986 -0.646411
2003-08-27 07:42:06 51°21.25 3°4.24 41.409475 0.373057 1.97455 -0.646411
2003-08-27 07:42:10 51°21.26 3°4.26 42.513649 0.386505 2.050052 -0.646411
2003-08-27 07:42:16 51°21.26 3°4.29 41.270517 0.748693 4.148639 -0.646411
2003-08-27 07:42:22 51°21.27 3°4.32 43.53481 0.65708 3.60751 -0.612702
2003-08-27 07:42:26 51°21.28 3°4.34 41.269752 0.295938 1.545265 -0.646411
2003-08-27 07:42:30 51°21.28 3°4.36 41.269752 0.295938 1.545265 -0.646411
2003-08-27 07:42:46 51°21.3 3°4.43 42.145196 0.845473 4.724926 -0.646411
2003-08-27 07:42:52 51°21.31 3°4.46 42.679295 0.398912 2.119388 -0.646411
2003-08-27 07:43:02 51°21.32 3°4.51 41.789844 0.884785 4.969714 -0.680121
2003-08-27 07:43:06 51°21.32 3°4.53 41.789844 0.884785 4.969714 -0.680121
2003-08-27 07:43:14 51°21.33 3°4.57 44.857201 0.468682 2.521579 -0.646411
2003-08-27 07:43:18 51°21.34 3°4.59 42.446176 0.453453 2.43118 -0.646411
2003-08-27 07:43:22 51°21.34 3°4.61 42.98797 0.453244 2.429118 -0.646411
2003-08-27 07:43:26 51°21.35 3°4.63 42.49662 0.619592 3.389575 -0.680121
2003-08-27 07:43:30 51°21.35 3°4.65 42.634679 0.613432 3.353352 -0.680121
2003-08-27 07:43:42 51°21.36 3°4.71 43.542193 0.72017 3.981223 -0.680121
2003-08-27 07:43:46 51°21.37 3°4.73 41.968409 0.409443 2.180601 -0.680121
2003-08-27 07:43:52 51°21.38 3°4.75 42.734678 0.489963 2.639405 -0.646411
2003-08-27 07:43:58 51°21.38 3°4.78 42.043091 0.330323 1.736569 -0.646411
2003-08-27 07:44:02 51°21.39 3°4.8 42.043091 0.330323 1.736569 -0.646411
2003-08-27 07:44:06 51°21.39 3°4.82 43.105082 0.402666 2.142646 -0.680121
2003-08-27 07:44:10 51°21.4 3°4.84 43.570735 0.675775 3.720421 -0.680121
2003-08-27 07:44:14 51°21.4 3°4.86 43.395401 0.550068 2.986347 -0.646411
2003-08-27 07:44:22 51°21.41 3°4.9 42.86286 0.37681 1.997304 -0.612702
2003-08-27 07:44:30 51°21.42 3°4.94 43.389109 0.858332 4.806538 -0.646411
2003-08-27 07:44:36 51°21.43 3°4.97 40.029328 0.364614 1.92818 -0.680121
2003-08-27 07:44:40 51°21.43 3°4.99 41.000029 0.686742 3.783569 -0.646411
2003-08-27 07:44:46 51°21.44 3°5.02 39.763678 0.684653 3.770933 -0.680121
2003-08-27 07:44:50 51°21.44 3°5.04 39.344105 0.588689 3.209239 -0.680121
2003-08-27 07:44:54 51°21.45 3°5.06 39.344105 0.588689 3.209239 -0.680121
2003-08-27 07:45:00 51°21.45 3°5.09 40.068206 0.469725 2.523011 -0.646411
2003-08-27 07:45:06 51°21.46 3°5.11 39.567688 0.759873 4.21693 -0.646411
2003-08-27 07:45:14 51°21.47 3°5.15 40.803786 0.672955 3.703446 -0.680121
2003-08-27 07:45:18 51°21.47 3°5.17 40.803786 0.672955 3.703446 -0.680121
2003-08-27 07:45:22 51°21.48 3°5.19 39.840453 0.751409 4.168251 -0.646411
2003-08-27 07:45:30 51°21.49 3°5.23 38.841395 0.52763 2.857012 -0.646411
2003-08-27 07:45:34 51°21.49 3°5.25 40.122175 0.80732 4.502008 -0.646411
2003-08-27 07:45:38 51°21.5 3°5.27 39.17777 0.448655 2.403704 -0.71383
2003-08-27 07:45:54 51°21.52 3°5.35 41.335287 0.366281 1.937667 -0.646411
2003-08-27 07:45:58 51°21.52 3°5.37 41.924714 0.797077 4.438352 -0.612702
2003-08-27 07:46:04 51°21.52 3°5.4 39.795736 0.747125 4.140351 -0.646411
2003-08-27 07:46:10 51°21.53 3°5.43 40.2865 0.492259 2.651806 -0.646411
2003-08-27 07:46:12 51°21.53 3°5.44 42.249716 0.532848 2.885386 -0.646411
2003-08-27 07:46:26 51°21.54 3°5.51 42.454379 0.5149 2.78239 -0.646411
2003-08-27 07:46:34 51°21.55 3°5.55 42.212158 0.729259 4.035685 -0.646411
2003-08-27 07:46:40 51°21.55 3°5.58 42.361199 0.391197 2.077887 -0.646411
2003-08-27 07:46:44 51°21.56 3°5.6 41.890592 0.589002 3.212401 -0.646411
2003-08-27 07:46:54 51°21.57 3°5.65 42.585253 0.318131 1.669549 -0.680121
2003-08-27 07:47:00 51°21.57 3°5.68 41.517459 0.754858 4.189895 -0.646411
2003-08-27 07:47:06 51°21.58 3°5.71 41.658499 0.350646 1.851102 -0.646411
2003-08-27 07:47:10 51°21.58 3°5.73 42.463034 0.866592 4.858524 -0.646411
2003-08-27 07:47:14 51°21.58 3°5.75 42.008351 0.616042 3.371408 -0.680121
2003-08-27 07:47:26 51°21.59 3°5.82 42.86052 0.515839 2.789601 -0.646411
2003-08-27 07:47:32 51°21.6 3°5.85 42.86052 0.515839 2.789601 -0.646411
2003-08-27 07:47:44 51°21.61 3°5.91 41.921922 0.5077 2.742826 -0.646411
2003-08-27 07:47:46 51°21.61 3°5.92 41.947141 0.607167 3.31952 -0.680121
2003-08-27 07:47:54 51°21.62 3°5.96 42.195975 0.527944 2.859765 -0.646411
2003-08-27 07:47:58 51°21.62 3°5.98 42.902915 0.317818 1.668722 -0.680121
2003-08-27 07:48:06 51°21.63 3°6.02 42.421289 0.636299 3.490674 -0.646411
2003-08-27 07:48:10 51°21.63 3°6.04 42.97811 0.826761 4.620738 -0.646411
2003-08-27 07:48:22 51°21.64 3°6.1 42.413263 0.398704 2.121953 -0.646411
2003-08-27 07:48:28 51°21.65 3°6.13 41.60416 0.556122 3.0231 -0.680121
2003-08-27 07:48:34 51°21.65 3°6.16 41.694848 0.711394 3.932887 -0.680121
2003-08-27 07:48:38 51°21.66 3°6.18 41.694848 0.711394 3.932887 -0.680121
2003-08-27 07:48:42 51°21.66 3°6.21 42.585162 0.487877 2.629106 -0.680121
2003-08-27 07:48:48 51°21.66 3°6.24 41.322264 0.400164 2.129495 -0.646411
2003-08-27 07:48:50 51°21.67 3°6.25 41.571429 0.436244 2.334237 -0.646411
2003-08-27 07:49:02 51°21.68 3°6.31 42.366693 0.625022 3.424271 -0.646411
2003-08-27 07:49:06 51°21.68 3°6.33 42.467075 0.490068 2.641674 -0.646411
2003-08-27 07:49:10 51°21.68 3°6.35 42.518712 0.508431 2.747463 -0.680121
2003-08-27 07:49:14 51°21.69 3°6.37 43.280786 0.668464 3.679672 -0.680121
2003-08-27 07:49:22 51°21.7 3°6.41 43.280278 0.421122 2.249155 -0.646411